Wetterdaten: Freitag, 11.12.2020
Datum Zeit Temp. Aussen Temp. o. S. Temp +5cm Feuchte Auss Luftdruck Regen Sonnenschein Regendauer Solar Windben Empfang
11.12.2020 00:00 0,3 C 0,0 C -1,2 C 92 % 1004,4 hPa 0,0 l/m 0 min 0 min 0 W/m 22,5 km/h (4 Bft) 97,87 %
11.12.2020 00:02 0,3 C 0,0 C -1,2 C 92 % 1004,3 hPa 0,0 l/m 0 min 0 min 0 W/m 19,3 km/h (3 Bft) 95,12 %
11.12.2020 00:04 0,3 C 0,0 C -1,2 C 92 % 1004,4 hPa 0,0 l/m 0 min 0 min 0 W/m 16,1 km/h (3 Bft) 97,87 %
11.12.2020 00:08 0,3 C 0,0 C -0,6 C 92 % 1004,4 hPa 0,0 l/m 0 min 0 min 0 W/m 29,0 km/h (5 Bft) 96,81 %
11.12.2020 00:10 0,3 C 0,0 C -1,2 C 92 % 1004,4 hPa 0,0 l/m 0 min 0 min 0 W/m 12,9 km/h (3 Bft) 91,30 %
11.12.2020 00:12 0,4 C 0,0 C -1,2 C 92 % 1004,4 hPa 0,0 l/m 0 min 0 min 0 W/m 16,1 km/h (3 Bft) 96,15 %
11.12.2020 00:14 0,4 C 0,0 C -1,2 C 92 % 1004,4 hPa 0,0 l/m 0 min 0 min 0 W/m 16,1 km/h (3 Bft) 95,74 %
11.12.2020 00:16 0,4 C 0,0 C -1,2 C 92 % 1004,4 hPa 0,0 l/m 0 min 0 min 0 W/m 19,3 km/h (3 Bft) 97,87 %
11.12.2020 00:18 0,4 C 0,0 C -0,6 C 92 % 1004,3 hPa 0,0 l/m 0 min 0 min 0 W/m 22,5 km/h (4 Bft) 97,87 %
11.12.2020 00:20 0,4 C 0,0 C -0,6 C 92 % 1004,2 hPa 0,0 l/m 0 min 0 min 0 W/m 12,9 km/h (3 Bft) 97,83 %
11.12.2020 00:22 0,4 C 0,0 C -0,6 C 92 % 1004,2 hPa 0,0 l/m 0 min 0 min 0 W/m 19,3 km/h (3 Bft) 91,49 %
11.12.2020 00:24 0,4 C 0,0 C -0,6 C 92 % 1004,2 hPa 0,0 l/m 0 min 0 min 0 W/m 16,1 km/h (3 Bft) 61,70 %
11.12.2020 00:26 0,4 C 0,0 C -0,6 C 92 % 1004,1 hPa 0,0 l/m 0 min 0 min 0 W/m 6,4 km/h (2 Bft) 86,05 %
11.12.2020 00:28 0,4 C 0,0 C -0,6 C 92 % 1004,1 hPa 0,0 l/m 0 min 0 min 0 W/m 25,7 km/h (4 Bft) 97,87 %
11.12.2020 00:30 0,4 C 0,0 C -0,6 C 92 % 1004,0 hPa 0,0 l/m 0 min 0 min 0 W/m 12,9 km/h (3 Bft) 97,87 %
11.12.2020 00:32 0,4 C 0,0 C -0,6 C 92 % 1003,9 hPa 0,0 l/m 0 min 0 min 0 W/m 16,1 km/h (3 Bft) 100,00 %
11.12.2020 00:34 0,4 C 0,0 C -0,6 C 92 % 1003,8 hPa 0,0 l/m 0 min 0 min 0 W/m 16,1 km/h (3 Bft) 97,87 %
11.12.2020 00:36 0,5 C 0,0 C -0,6 C 92 % 1003,8 hPa 0,0 l/m 0 min 0 min 0 W/m 12,9 km/h (3 Bft) 97,87 %
11.12.2020 00:38 0,5 C 0,0 C -0,6 C 92 % 1003,8 hPa 0,0 l/m 0 min 0 min 0 W/m 12,9 km/h (3 Bft) 95,74 %
11.12.2020 00:40 0,5 C 0,0 C -0,6 C 92 % 1003,8 hPa 0,0 l/m 0 min 0 min 0 W/m 12,9 km/h (3 Bft) 97,87 %
11.12.2020 00:42 0,5 C 0,0 C -0,6 C 92 % 1003,7 hPa 0,0 l/m 0 min 0 min 0 W/m 19,3 km/h (3 Bft) 95,65 %
11.12.2020 00:44 0,5 C 0,0 C -0,6 C 92 % 1003,6 hPa 0,0 l/m 0 min 0 min 0 W/m 12,9 km/h (3 Bft) 97,87 %
11.12.2020 00:46 0,5 C 0,0 C -0,6 C 92 % 1003,7 hPa 0,0 l/m 0 min 0 min 0 W/m 22,5 km/h (4 Bft) 95,74 %
11.12.2020 00:48 0,5 C 0,0 C -0,6 C 92 % 1003,7 hPa 0,0 l/m 0 min 0 min 0 W/m 22,5 km/h (4 Bft) 95,74 %
11.12.2020 00:50 0,5 C 0,0 C -0,6 C 92 % 1003,6 hPa 0,0 l/m 0 min 0 min 0 W/m 19,3 km/h (3 Bft) 95,74 %
11.12.2020 00:52 0,5 C 0,0 C -0,6 C 92 % 1003,6 hPa 0,0 l/m 0 min 0 min 0 W/m 16,1 km/h (3 Bft) 97,87 %
11.12.2020 00:54 0,5 C 0,0 C -0,6 C 92 % 1003,5 hPa 0,0 l/m 0 min 0 min 0 W/m 19,3 km/h (3 Bft) 95,65 %
11.12.2020 00:56 0,5 C 0,0 C -0,6 C 92 % 1003,5 hPa 0,0 l/m 0 min 0 min 0 W/m 12,9 km/h (3 Bft) 97,87 %
11.12.2020 00:58 0,5 C 0,0 C -0,6 C 92 % 1003,4 hPa 0,0 l/m 0 min 0 min 0 W/m 16,1 km/h (3 Bft) 100,00 %
11.12.2020 01:00 0,5 C 0,0 C -0,6 C 92 % 1003,3 hPa 0,0 l/m 0 min 0 min 0 W/m 12,9 km/h (3 Bft) 97,87 %
11.12.2020 01:02 0,5 C 0,0 C -0,6 C 92 % 1003,3 hPa 0,0 l/m 0 min 0 min 0 W/m 16,1 km/h (3 Bft) 95,74 %
11.12.2020 01:04 0,5 C 0,0 C -0,6 C 92 % 1003,2 hPa 0,0 l/m 0 min 0 min 0 W/m 12,9 km/h (3 Bft) 95,74 %
11.12.2020 01:06 0,5 C 0,0 C -0,6 C 92 % 1003,2 hPa 0,0 l/m 0 min 0 min 0 W/m 12,9 km/h (3 Bft) 95,65 %
11.12.2020 01:08 0,5 C 0,0 C -0,6 C 92 % 1003,2 hPa 0,0 l/m 0 min 0 min 0 W/m 16,1 km/h (3 Bft) 97,87 %
11.12.2020 01:10 0,5 C 0,0 C -0,6 C 92 % 1003,1 hPa 0,0 l/m 0 min 0 min 0 W/m 12,9 km/h (3 Bft) 97,87 %
11.12.2020 01:12 0,5 C 0,0 C -0,6 C 92 % 1003,0 hPa 0,0 l/m 0 min 0 min 0 W/m 19,3 km/h (3 Bft) 95,74 %
11.12.2020 01:14 0,5 C 0,0 C -0,6 C 92 % 1002,9 hPa 0,0 l/m 0 min 0 min 0 W/m 12,9 km/h (3 Bft) 97,87 %
11.12.2020 01:16 0,5 C 0,0 C -0,6 C 92 % 1002,9 hPa 0,0 l/m 0 min 0 min 0 W/m 12,9 km/h (3 Bft) 97,87 %
11.12.2020 01:18 0,5 C 0,0 C -0,6 C 92 % 1002,8 hPa 0,0 l/m 0 min 0 min 0 W/m 12,9 km/h (3 Bft) 97,83 %
11.12.2020 01:20 0,5 C 0,0 C -0,6 C 92 % 1002,7 hPa 0,0 l/m 0 min 0 min 0 W/m 19,3 km/h (3 Bft) 95,74 %
11.12.2020 01:22 0,5 C 0,0 C -0,6 C 92 % 1002,6 hPa 0,0 l/m 0 min 0 min 0 W/m 12,9 km/h (3 Bft) 97,87 %
11.12.2020 01:24 0,5 C 0,0 C -0,6 C 92 % 1002,6 hPa 0,0 l/m 0 min 0 min 0 W/m 19,3 km/h (3 Bft) 97,87 %
11.12.2020 01:26 0,5 C 0,0 C -0,6 C 92 % 1002,6 hPa 0,0 l/m 0 min 0 min 0 W/m 19,3 km/h (3 Bft) 97,87 %
11.12.2020 01:28 0,6 C 0,6 C -0,6 C 92 % 1002,5 hPa 0,0 l/m 0 min 0 min 0 W/m 19,3 km/h (3 Bft) 97,87 %
11.12.2020 01:30 0,6 C 0,0 C -0,6 C 92 % 1002,5 hPa 0,0 l/m 0 min 0 min 0 W/m 12,9 km/h (3 Bft) 97,83 %
11.12.2020 01:32 0,6 C 0,0 C -0,6 C 92 % 1002,5 hPa 0,0 l/m 0 min 0 min 0 W/m 6,4 km/h (2 Bft) 95,74 %
11.12.2020 01:34 0,6 C 0,0 C -0,6 C 92 % 1002,4 hPa 0,0 l/m 0 min 0 min 0 W/m 9,7 km/h (2 Bft) 97,87 %
11.12.2020 01:36 0,6 C 0,0 C -0,6 C 92 % 1002,4 hPa 0,0 l/m 0 min 0 min 0 W/m 6,4 km/h (2 Bft) 95,74 %
11.12.2020 01:38 0,6 C 0,0 C -0,6 C 92 % 1002,4 hPa 0,0 l/m 0 min 0 min 0 W/m 12,9 km/h (3 Bft) 97,87 %
11.12.2020 01:40 0,6 C 0,0 C -0,6 C 92 % 1002,4 hPa 0,0 l/m 0 min 0 min 0 W/m 16,1 km/h (3 Bft) 95,74 %
11.12.2020 01:42 0,6 C 0,6 C -0,6 C 92 % 1002,2 hPa 0,0 l/m 0 min 0 min 0 W/m 16,1 km/h (3 Bft) 97,87 %
11.12.2020 01:44 0,6 C 0,6 C -0,6 C 92 % 1002,2 hPa 0,0 l/m 0 min 0 min 0 W/m 19,3 km/h (3 Bft) 97,87 %
11.12.2020 01:46 0,6 C 0,6 C -0,6 C 92 % 1002,1 hPa 0,0 l/m 0 min 0 min 0 W/m 19,3 km/h (3 Bft) 97,87 %
11.12.2020 01:48 0,7 C 0,6 C -0,6 C 92 % 1002,1 hPa 0,0 l/m 0 min 0 min 0 W/m 16,1 km/h (3 Bft) 95,65 %
11.12.2020 01:50 0,7 C 0,6 C -0,6 C 92 % 1002,1 hPa 0,0 l/m 0 min 0 min 0 W/m 19,3 km/h (3 Bft) 97,87 %
11.12.2020 01:52 0,7 C 0,6 C -0,6 C 92 % 1002,1 hPa 0,0 l/m 0 min 0 min 0 W/m 12,9 km/h (3 Bft) 97,87 %
11.12.2020 01:54 0,8 C 0,6 C -0,6 C 92 % 1002,0 hPa 0,0 l/m 0 min 0 min 0 W/m 12,9 km/h (3 Bft) 95,65 %
11.12.2020 01:56 0,8 C 0,6 C -0,6 C 92 % 1002,0 hPa 0,0 l/m 0 min 0 min 0 W/m 16,1 km/h (3 Bft) 97,87 %
11.12.2020 01:58 0,8 C 0,6 C -0,6 C 92 % 1002,1 hPa 0,0 l/m 0 min 0 min 0 W/m 9,7 km/h (2 Bft) 95,74 %
11.12.2020 02:00 0,8 C 0,6 C -0,6 C 92 % 1001,9 hPa 0,0 l/m 0 min 0 min 0 W/m 19,3 km/h (3 Bft) 97,87 %
11.12.2020 02:02 0,8 C 0,6 C -0,6 C 92 % 1001,9 hPa 0,0 l/m 0 min 0 min 0 W/m 9,7 km/h (2 Bft) 95,65 %
11.12.2020 02:04 0,8 C 0,6 C -0,6 C 92 % 1002,0 hPa 0,0 l/m 0 min 0 min 0 W/m 12,9 km/h (3 Bft) 97,87 %
11.12.2020 02:06 0,8 C 0,6 C -0,6 C 92 % 1002,0 hPa 0,0 l/m 0 min 0 min 0 W/m 19,3 km/h (3 Bft) 95,74 %
11.12.2020 02:08 0,8 C 0,6 C -0,6 C 92 % 1002,0 hPa 0,0 l/m 0 min 0 min 0 W/m 12,9 km/h (3 Bft) 95,74 %
11.12.2020 02:10 0,8 C 0,6 C -0,6 C 92 % 1002,0 hPa 0,0 l/m 0 min 0 min 0 W/m 19,3 km/h (3 Bft) 91,43 %
11.12.2020 02:12 0,8 C 0,6 C -0,6 C 92 % 1001,9 hPa 0,0 l/m 0 min 0 min 0 W/m 12,9 km/h (3 Bft) 95,74 %
11.12.2020 02:14 0,8 C 0,6 C -0,6 C 92 % 1002,0 hPa 0,0 l/m 0 min 0 min 0 W/m 22,5 km/h (4 Bft) 95,65 %
11.12.2020 02:16 0,9 C 0,6 C -0,6 C 92 % 1002,0 hPa 0,0 l/m 0 min 0 min 0 W/m 12,9 km/h (3 Bft) 93,62 %
11.12.2020 02:18 0,9 C 0,6 C -0,6 C 92 % 1001,9 hPa 0,0 l/m 0 min 0 min 0 W/m 19,3 km/h (3 Bft) 93,62 %
11.12.2020 02:20 0,9 C 0,6 C -0,6 C 92 % 1001,9 hPa 0,0 l/m 0 min 0 min 0 W/m 16,1 km/h (3 Bft) 95,74 %
11.12.2020 02:22 0,9 C 0,6 C -0,6 C 92 % 1001,9 hPa 0,0 l/m 0 min 0 min 0 W/m 16,1 km/h (3 Bft) 95,74 %
11.12.2020 02:24 0,9 C 0,6 C -0,6 C 91 % 1002,0 hPa 0,0 l/m 0 min 0 min 0 W/m 16,1 km/h (3 Bft) 95,65 %
11.12.2020 02:26 0,9 C 0,6 C -0,6 C 91 % 1001,9 hPa 0,0 l/m 0 min 0 min 0 W/m 12,9 km/h (3 Bft) 93,62 %
11.12.2020 02:28 0,9 C 0,6 C -0,6 C 91 % 1001,8 hPa 0,0 l/m 0 min 0 min 0 W/m 22,5 km/h (4 Bft) 93,62 %
11.12.2020 02:30 0,9 C 0,6 C -0,6 C 91 % 1001,9 hPa 0,0 l/m 0 min 0 min 0 W/m 19,3 km/h (3 Bft) 95,74 %
11.12.2020 02:32 0,9 C 0,6 C -0,6 C 91 % 1001,8 hPa 0,0 l/m 0 min 0 min 0 W/m 19,3 km/h (3 Bft) 95,74 %
11.12.2020 02:34 0,9 C 0,6 C -0,6 C 91 % 1001,7 hPa 0,0 l/m 0 min 0 min 0 W/m 6,4 km/h (2 Bft) 95,74 %
11.12.2020 02:36 0,9 C 0,6 C -0,6 C 91 % 1001,7 hPa 0,0 l/m 0 min 0 min 0 W/m 16,1 km/h (3 Bft) 95,65 %
11.12.2020 02:38 0,9 C 0,6 C -0,6 C 91 % 1001,7 hPa 0,0 l/m 0 min 0 min 0 W/m 12,9 km/h (3 Bft) 97,87 %
11.12.2020 02:40 0,9 C 0,6 C -0,6 C 91 % 1001,6 hPa 0,0 l/m 0 min 0 min 0 W/m 6,4 km/h (2 Bft) 95,74 %
11.12.2020 02:42 0,9 C 0,6 C -0,6 C 91 % 1001,6 hPa 0,0 l/m 0 min 0 min 0 W/m 12,9 km/h (3 Bft) 95,74 %
11.12.2020 02:44 0,9 C 0,6 C -0,6 C 91 % 1001,6 hPa 0,0 l/m 0 min 0 min 0 W/m 22,5 km/h (4 Bft) 97,87 %
11.12.2020 02:46 0,9 C 0,6 C -0,6 C 91 % 1001,6 hPa 0,0 l/m 0 min 0 min 0 W/m 12,9 km/h (3 Bft) 95,74 %
11.12.2020 02:48 0,9 C 0,6 C -0,6 C 91 % 1001,5 hPa 0,0 l/m 0 min 0 min 0 W/m 19,3 km/h (3 Bft) 93,48 %
11.12.2020 02:50 0,9 C 0,6 C -0,6 C 91 % 1001,5 hPa 0,0 l/m 0 min 0 min 0 W/m 19,3 km/h (3 Bft) 91,49 %
11.12.2020 02:52 0,9 C 0,6 C -0,1 C 91 % 1001,4 hPa 0,0 l/m 0 min 0 min 0 W/m 16,1 km/h (3 Bft) 97,87 %
11.12.2020 02:54 1,0 C 0,6 C -0,6 C 91 % 1001,3 hPa 0,0 l/m 0 min 0 min 0 W/m 16,1 km/h (3 Bft) 95,74 %
11.12.2020 02:56 1,0 C 0,6 C -0,6 C 92 % 1001,3 hPa 0,0 l/m 0 min 0 min 0 W/m 12,9 km/h (3 Bft) 97,87 %
11.12.2020 02:58 1,0 C 0,6 C -0,6 C 92 % 1001,3 hPa 0,0 l/m 0 min 0 min 0 W/m 16,1 km/h (3 Bft) 95,74 %
11.12.2020 03:00 1,0 C 0,6 C -0,6 C 92 % 1001,3 hPa 0,0 l/m 0 min 0 min 0 W/m 19,3 km/h (3 Bft) 95,65 %
11.12.2020 03:02 1,0 C 0,6 C -0,1 C 92 % 1001,3 hPa 0,0 l/m 0 min 0 min 0 W/m 22,5 km/h (4 Bft) 97,87 %
11.12.2020 03:04 1,0 C 0,6 C -0,6 C 92 % 1001,2 hPa 0,0 l/m 0 min 0 min 0 W/m 9,7 km/h (2 Bft) 93,62 %
11.12.2020 03:06 1,0 C 0,6 C -0,6 C 92 % 1001,1 hPa 0,0 l/m 0 min 0 min 0 W/m 9,7 km/h (2 Bft) 93,62 %
11.12.2020 03:08 1,0 C 0,6 C -0,6 C 92 % 1001,1 hPa 0,0 l/m 0 min 0 min 0 W/m 9,7 km/h (2 Bft) 95,74 %
11.12.2020 03:10 1,0 C 0,6 C -0,6 C 92 % 1001,0 hPa 0,0 l/m 0 min 0 min 0 W/m 12,9 km/h (3 Bft) 97,87 %
11.12.2020 03:12 1,0 C 0,6 C -0,6 C 92 % 1001,0 hPa 0,0 l/m 0 min 0 min 0 W/m 12,9 km/h (3 Bft) 95,65 %
11.12.2020 03:14 1,0 C 0,6 C -0,6 C 92 % 1001,0 hPa 0,0 l/m 0 min 0 min 0 W/m 22,5 km/h (4 Bft) 96,36 %
11.12.2020 03:16 1,0 C 0,6 C -0,6 C 92 % 1000,9 hPa 0,0 l/m 0 min 0 min 0 W/m 6,4 km/h (2 Bft) 95,92 %
11.12.2020 03:18 1,0 C 0,6 C -0,6 C 91 % 1000,8 hPa 0,0 l/m 0 min 0 min 0 W/m 12,9 km/h (3 Bft) 94,59 %
11.12.2020 03:20 0,9 C 0,6 C -0,6 C 92 % 1000,8 hPa 0,0 l/m 0 min 0 min 0 W/m 12,9 km/h (3 Bft) 95,74 %
11.12.2020 03:22 0,9 C 0,6 C -0,6 C 91 % 1000,8 hPa 0,0 l/m 0 min 0 min 0 W/m 16,1 km/h (3 Bft) 91,49 %
11.12.2020 03:24 1,0 C 0,6 C -0,6 C 91 % 1000,7 hPa 0,0 l/m 0 min 0 min 0 W/m 25,7 km/h (4 Bft) 95,65 %
11.12.2020 03:26 1,0 C 0,6 C -0,6 C 92 % 1000,7 hPa 0,0 l/m 0 min 0 min 0 W/m 16,1 km/h (3 Bft) 93,62 %
11.12.2020 03:28 0,9 C 0,6 C -0,6 C 91 % 1000,6 hPa 0,0 l/m 0 min 0 min 0 W/m 16,1 km/h (3 Bft) 95,74 %
11.12.2020 03:30 0,9 C 0,6 C -0,6 C 91 % 1000,6 hPa 0,0 l/m 0 min 0 min 0 W/m 9,7 km/h (2 Bft) 95,74 %
11.12.2020 03:32 0,9 C 0,6 C -0,6 C 91 % 1000,5 hPa 0,0 l/m 0 min 0 min 0 W/m 16,1 km/h (3 Bft) 95,74 %
11.12.2020 03:34 0,9 C 0,6 C -0,6 C 91 % 1000,5 hPa 0,0 l/m 0 min 0 min 0 W/m 19,3 km/h (3 Bft) 95,65 %
11.12.2020 03:36 0,9 C 0,6 C -0,6 C 91 % 1000,5 hPa 0,0 l/m 0 min 0 min 0 W/m 16,1 km/h (3 Bft) 95,74 %
11.12.2020 03:38 0,9 C 0,6 C -0,6 C 91 % 1000,4 hPa 0,0 l/m 0 min 0 min 0 W/m 16,1 km/h (3 Bft) 97,87 %
11.12.2020 03:40 0,9 C 0,6 C -0,6 C 91 % 1000,4 hPa 0,0 l/m 0 min 0 min 0 W/m 12,9 km/h (3 Bft) 93,62 %
11.12.2020 03:42 0,9 C 0,6 C -0,6 C 91 % 1000,3 hPa 0,0 l/m 0 min 0 min 0 W/m 19,3 km/h (3 Bft) 95,74 %
11.12.2020 03:44 0,9 C 0,6 C -0,6 C 91 % 1000,3 hPa 0,0 l/m 0 min 0 min 0 W/m 12,9 km/h (3 Bft) 95,74 %
11.12.2020 03:46 0,9 C 0,6 C -0,6 C 91 % 1000,2 hPa 0,0 l/m 0 min 0 min 0 W/m 16,1 km/h (3 Bft) 95,74 %
11.12.2020 03:48 0,9 C 0,6 C -0,6 C 91 % 1000,2 hPa 0,0 l/m 0 min 0 min 0 W/m 19,3 km/h (3 Bft) 95,65 %
11.12.2020 03:50 0,9 C 0,6 C -0,6 C 91 % 1000,2 hPa 0,0 l/m 0 min 0 min 0 W/m 9,7 km/h (2 Bft) 95,74 %
11.12.2020 03:52 0,9 C 0,6 C -0,6 C 91 % 1000,3 hPa 0,0 l/m 0 min 0 min 0 W/m 6,4 km/h (2 Bft) 97,87 %
11.12.2020 03:54 0,8 C 0,6 C -0,6 C 91 % 1000,3 hPa 0,0 l/m 0 min 0 min 0 W/m 12,9 km/h (3 Bft) 95,74 %
11.12.2020 03:56 0,8 C 0,6 C -0,6 C 91 % 1000,3 hPa 0,0 l/m 0 min 0 min 0 W/m 19,3 km/h (3 Bft) 97,87 %
11.12.2020 03:58 0,8 C 0,0 C -0,6 C 91 % 1000,3 hPa 0,0 l/m 0 min 0 min 0 W/m 6,4 km/h (2 Bft) 97,83 %
11.12.2020 04:00 0,8 C 0,0 C -0,6 C 91 % 1000,2 hPa 0,0 l/m 0 min 0 min 0 W/m 6,4 km/h (2 Bft) 97,87 %
11.12.2020 04:02 0,8 C 0,0 C -0,6 C 91 % 1000,2 hPa 0,0 l/m 0 min 0 min 0 W/m 6,4 km/h (2 Bft) 100,00 %
11.12.2020 04:04 0,8 C 0,0 C -0,6 C 91 % 1000,2 hPa 0,0 l/m 0 min 0 min 0 W/m 9,7 km/h (2 Bft) 100,00 %
11.12.2020 04:06 0,8 C 0,0 C -0,6 C 91 % 1000,2 hPa 0,0 l/m 0 min 0 min 0 W/m 6,4 km/h (2 Bft) 95,74 %
11.12.2020 04:08 0,7 C 0,0 C -0,6 C 91 % 1000,2 hPa 0,0 l/m 0 min 0 min 0 W/m 16,1 km/h (3 Bft) 97,87 %
11.12.2020 04:10 0,7 C 0,0 C -0,6 C 91 % 1000,2 hPa 0,0 l/m 0 min 0 min 0 W/m 6,4 km/h (2 Bft) 97,83 %
11.12.2020 04:12 0,7 C 0,0 C -0,6 C 91 % 1000,3 hPa 0,0 l/m 0 min 0 min 0 W/m 6,4 km/h (2 Bft) 97,87 %
11.12.2020 04:14 0,7 C 0,0 C -0,6 C 92 % 1000,2 hPa 0,0 l/m 0 min 0 min 0 W/m 12,9 km/h (3 Bft) 97,87 %
11.12.2020 04:16 0,6 C 0,0 C -0,6 C 92 % 1000,2 hPa 0,0 l/m 0 min 0 min 0 W/m 6,4 km/h (2 Bft) 97,87 %
11.12.2020 04:18 0,6 C 0,0 C -0,6 C 92 % 1000,1 hPa 0,0 l/m 0 min 0 min 0 W/m 16,1 km/h (3 Bft) 97,87 %
11.12.2020 04:20 0,6 C 0,0 C -0,6 C 92 % 1000,2 hPa 0,0 l/m 0 min 0 min 0 W/m 9,7 km/h (2 Bft) 97,87 %
11.12.2020 04:22 0,6 C 0,0 C -0,6 C 92 % 1000,1 hPa 0,0 l/m 0 min 0 min 0 W/m 9,7 km/h (2 Bft) 95,65 %
11.12.2020 04:24 0,6 C 0,0 C -0,6 C 92 % 1000,0 hPa 0,0 l/m 0 min 0 min 0 W/m 12,9 km/h (3 Bft) 97,87 %
11.12.2020 04:26 0,6 C 0,6 C -0,6 C 92 % 1000,1 hPa 0,0 l/m 0 min 0 min 0 W/m 9,7 km/h (2 Bft) 93,62 %
11.12.2020 04:28 0,7 C 0,6 C -0,6 C 92 % 1000,0 hPa 0,0 l/m 0 min 0 min 0 W/m 19,3 km/h (3 Bft) 95,74 %
11.12.2020 04:30 0,7 C 0,6 C -0,6 C 92 % 999,9 hPa 0,0 l/m 0 min 0 min 0 W/m 6,4 km/h (2 Bft) 97,87 %
11.12.2020 04:32 0,8 C 0,6 C -0,6 C 92 % 999,9 hPa 0,0 l/m 0 min 0 min 0 W/m 16,1 km/h (3 Bft) 97,87 %
11.12.2020 04:34 0,8 C 0,6 C -0,6 C 92 % 999,8 hPa 0,0 l/m 0 min 0 min 0 W/m 16,1 km/h (3 Bft) 97,83 %
11.12.2020 04:36 0,8 C 0,6 C -0,6 C 92 % 999,8 hPa 0,0 l/m 0 min 0 min 0 W/m 12,9 km/h (3 Bft) 91,49 %
11.12.2020 04:38 0,8 C 0,6 C -0,6 C 92 % 999,8 hPa 0,0 l/m 0 min 0 min 0 W/m 12,9 km/h (3 Bft) 97,87 %
11.12.2020 04:40 0,8 C 0,6 C -0,6 C 92 % 999,8 hPa 0,0 l/m 0 min 0 min 0 W/m 12,9 km/h (3 Bft) 97,87 %
11.12.2020 04:42 0,9 C 0,6 C -0,6 C 92 % 999,9 hPa 0,0 l/m 0 min 0 min 0 W/m 12,9 km/h (3 Bft) 95,74 %
11.12.2020 04:44 0,9 C 0,6 C -0,6 C 92 % 999,9 hPa 0,0 l/m 0 min 0 min 0 W/m 12,9 km/h (3 Bft) 95,74 %
11.12.2020 04:46 0,9 C 0,6 C -0,6 C 92 % 999,8 hPa 0,0 l/m 0 min 0 min 0 W/m 12,9 km/h (3 Bft) 95,65 %
11.12.2020 04:48 0,9 C 0,6 C -0,6 C 92 % 999,9 hPa 0,0 l/m 0 min 0 min 0 W/m 16,1 km/h (3 Bft) 97,87 %
11.12.2020 04:50 0,9 C 0,6 C -0,6 C 92 % 999,8 hPa 0,0 l/m 0 min 0 min 0 W/m 16,1 km/h (3 Bft) 95,74 %
11.12.2020 04:52 0,9 C 0,6 C -0,6 C 92 % 999,8 hPa 0,0 l/m 0 min 0 min 0 W/m 12,9 km/h (3 Bft) 95,74 %
11.12.2020 04:54 0,9 C 0,6 C -0,6 C 91 % 999,7 hPa 0,0 l/m 0 min 0 min 0 W/m 16,1 km/h (3 Bft) 95,74 %
11.12.2020 04:56 1,0 C 0,6 C -0,6 C 92 % 999,6 hPa 0,0 l/m 0 min 0 min 0 W/m 19,3 km/h (3 Bft) 95,74 %
11.12.2020 04:58 1,0 C 0,6 C -0,1 C 92 % 999,6 hPa 0,0 l/m 0 min 0 min 0 W/m 16,1 km/h (3 Bft) 95,65 %
11.12.2020 05:00 1,0 C 0,6 C -0,1 C 92 % 999,7 hPa 0,0 l/m 0 min 0 min 0 W/m 22,5 km/h (4 Bft) 95,74 %
11.12.2020 05:02 1,0 C 0,6 C -0,1 C 92 % 999,7 hPa 0,0 l/m 0 min 0 min 0 W/m 12,9 km/h (3 Bft) 95,74 %
11.12.2020 05:04 1,0 C 0,6 C -0,1 C 91 % 999,6 hPa 0,0 l/m 0 min 0 min 0 W/m 25,7 km/h (4 Bft) 95,74 %
11.12.2020 05:06 1,0 C 0,6 C -0,1 C 91 % 999,6 hPa 0,0 l/m 0 min 0 min 0 W/m 19,3 km/h (3 Bft) 95,74 %
11.12.2020 05:08 1,0 C 0,6 C -0,1 C 91 % 999,6 hPa 0,0 l/m 0 min 0 min 0 W/m 22,5 km/h (4 Bft) 95,65 %
11.12.2020 05:10 1,1 C 0,6 C -0,1 C 91 % 999,5 hPa 0,0 l/m 0 min 0 min 0 W/m 19,3 km/h (3 Bft) 95,74 %
11.12.2020 05:12 1,1 C 0,6 C -0,1 C 91 % 999,5 hPa 0,0 l/m 0 min 0 min 0 W/m 6,4 km/h (2 Bft) 93,62 %
11.12.2020 05:14 1,1 C 0,6 C -0,6 C 91 % 999,5 hPa 0,0 l/m 0 min 0 min 0 W/m 6,4 km/h (2 Bft) 95,74 %
11.12.2020 05:16 1,1 C 0,6 C -0,1 C 91 % 999,5 hPa 0,0 l/m 0 min 0 min 0 W/m 16,1 km/h (3 Bft) 95,74 %
11.12.2020 05:18 1,1 C 0,6 C -0,1 C 91 % 999,4 hPa 0,0 l/m 0 min 0 min 0 W/m 22,5 km/h (4 Bft) 95,74 %
11.12.2020 05:20 1,1 C 0,6 C -0,1 C 91 % 999,4 hPa 0,0 l/m 0 min 0 min 0 W/m 16,1 km/h (3 Bft) 95,65 %
11.12.2020 05:22 1,1 C 0,6 C -0,1 C 91 % 999,4 hPa 0,0 l/m 0 min 0 min 0 W/m 16,1 km/h (3 Bft) 93,62 %
11.12.2020 05:24 1,1 C 0,6 C -0,1 C 91 % 999,4 hPa 0,0 l/m 0 min 0 min 0 W/m 16,1 km/h (3 Bft) 93,62 %
11.12.2020 05:26 1,1 C 0,6 C -0,1 C 91 % 999,4 hPa 0,0 l/m 0 min 0 min 0 W/m 16,1 km/h (3 Bft) 97,87 %
11.12.2020 05:28 1,1 C 0,6 C -0,1 C 91 % 999,3 hPa 0,0 l/m 0 min 0 min 0 W/m 19,3 km/h (3 Bft) 95,74 %
11.12.2020 05:30 1,1 C 0,6 C -0,6 C 91 % 999,4 hPa 0,0 l/m 0 min 0 min 0 W/m 16,1 km/h (3 Bft) 97,87 %
11.12.2020 05:32 1,1 C 0,6 C -0,1 C 91 % 999,4 hPa 0,0 l/m 0 min 0 min 0 W/m 19,3 km/h (3 Bft) 100,00 %
11.12.2020 05:34 1,1 C 0,6 C -0,6 C 91 % 999,3 hPa 0,0 l/m 0 min 0 min 0 W/m 16,1 km/h (3 Bft) 95,74 %
11.12.2020 05:36 1,1 C 0,6 C -0,6 C 91 % 999,1 hPa 0,0 l/m 0 min 0 min 0 W/m 25,7 km/h (4 Bft) 100,00 %
11.12.2020 05:38 1,1 C 0,6 C -0,6 C 91 % 999,1 hPa 0,0 l/m 0 min 0 min 0 W/m 16,1 km/h (3 Bft) 100,00 %
11.12.2020 05:40 1,1 C 0,6 C -0,6 C 91 % 999,0 hPa 0,0 l/m 0 min 0 min 0 W/m 9,7 km/h (2 Bft) 100,00 %
11.12.2020 05:42 1,0 C 0,6 C -0,6 C 91 % 999,0 hPa 0,0 l/m 0 min 0 min 0 W/m 9,7 km/h (2 Bft) 100,00 %
11.12.2020 05:44 1,0 C 0,6 C -0,6 C 91 % 998,9 hPa 0,0 l/m 0 min 0 min 0 W/m 12,9 km/h (3 Bft) 97,83 %
11.12.2020 05:46 1,0 C 0,6 C -0,6 C 91 % 998,9 hPa 0,0 l/m 0 min 0 min 0 W/m 19,3 km/h (3 Bft) 95,74 %
11.12.2020 05:48 1,0 C 0,6 C -0,6 C 91 % 998,9 hPa 0,0 l/m 0 min 0 min 0 W/m 19,3 km/h (3 Bft) 97,87 %
11.12.2020 05:50 1,0 C 0,6 C -0,6 C 91 % 998,9 hPa 0,0 l/m 0 min 0 min 0 W/m 6,4 km/h (2 Bft) 97,87 %
11.12.2020 05:52 1,0 C 0,6 C -0,6 C 91 % 998,8 hPa 0,0 l/m 0 min 0 min 0 W/m 19,3 km/h (3 Bft) 97,87 %
11.12.2020 05:54 1,0 C 0,6 C -0,6 C 91 % 998,8 hPa 0,0 l/m 0 min 0 min 0 W/m 16,1 km/h (3 Bft) 97,87 %
11.12.2020 05:56 0,9 C 0,6 C -0,6 C 91 % 998,7 hPa 0,0 l/m 0 min 0 min 0 W/m 12,9 km/h (3 Bft) 95,65 %
11.12.2020 05:58 0,9 C 0,6 C -0,6 C 91 % 998,6 hPa 0,0 l/m 0 min 0 min 0 W/m 16,1 km/h (3 Bft) 97,87 %
11.12.2020 06:00 0,9 C 0,6 C -0,6 C 91 % 998,6 hPa 0,0 l/m 0 min 0 min 0 W/m 12,9 km/h (3 Bft) 95,74 %
11.12.2020 06:02 0,9 C 0,6 C -0,6 C 91 % 998,6 hPa 0,0 l/m 0 min 0 min 0 W/m 16,1 km/h (3 Bft) 97,87 %
11.12.2020 06:04 0,9 C 0,6 C -0,6 C 91 % 998,5 hPa 0,0 l/m 0 min 0 min 0 W/m 19,3 km/h (3 Bft) 93,62 %
11.12.2020 06:08 0,9 C 0,6 C -0,6 C 91 % 998,4 hPa 0,0 l/m 0 min 0 min 0 W/m 19,3 km/h (3 Bft) 97,85 %
11.12.2020 06:10 0,9 C 0,6 C -0,6 C 91 % 998,3 hPa 0,0 l/m 0 min 0 min 0 W/m 12,9 km/h (3 Bft) 95,74 %
11.12.2020 06:12 0,9 C 0,6 C -0,6 C 91 % 998,3 hPa 0,0 l/m 0 min 0 min 0 W/m 16,1 km/h (3 Bft) 97,87 %
11.12.2020 06:14 0,9 C 0,6 C -0,6 C 91 % 998,3 hPa 0,0 l/m 0 min 0 min 0 W/m 16,1 km/h (3 Bft) 97,87 %
11.12.2020 06:16 0,9 C 0,6 C -0,6 C 91 % 998,2 hPa 0,0 l/m 0 min 0 min 0 W/m 22,5 km/h (4 Bft) 96,43 %
11.12.2020 06:18 0,9 C 0,6 C -0,6 C 91 % 998,1 hPa 0,0 l/m 0 min 0 min 0 W/m 12,9 km/h (3 Bft) 97,87 %
11.12.2020 06:20 0,9 C 0,6 C -0,6 C 91 % 998,1 hPa 0,0 l/m 0 min 0 min 0 W/m 16,1 km/h (3 Bft) 97,87 %
11.12.2020 06:22 0,9 C 0,6 C -0,6 C 91 % 998,0 hPa 0,0 l/m 0 min 0 min 0 W/m 9,7 km/h (2 Bft) 97,87 %
11.12.2020 06:24 0,9 C 0,6 C -0,6 C 91 % 997,9 hPa 0,0 l/m 0 min 0 min 0 W/m 9,7 km/h (2 Bft) 97,87 %
11.12.2020 06:26 0,9 C 0,6 C -0,6 C 91 % 997,8 hPa 0,0 l/m 0 min 0 min 0 W/m 22,5 km/h (4 Bft) 97,83 %
11.12.2020 06:28 0,9 C 0,6 C -0,6 C 91 % 997,8 hPa 0,0 l/m 0 min 0 min 0 W/m 19,3 km/h (3 Bft) 95,74 %
11.12.2020 06:30 0,9 C 0,6 C -0,6 C 91 % 997,7 hPa 0,0 l/m 0 min 0 min 0 W/m 12,9 km/h (3 Bft) 95,74 %
11.12.2020 06:32 0,9 C 0,6 C -0,6 C 91 % 997,7 hPa 0,0 l/m 0 min 0 min 0 W/m 6,4 km/h (2 Bft) 95,74 %
11.12.2020 06:34 0,9 C 0,6 C -0,6 C 91 % 997,6 hPa 0,0 l/m 0 min 0 min 0 W/m 22,5 km/h (4 Bft) 100,00 %
11.12.2020 06:36 0,9 C 0,6 C -0,6 C 91 % 997,6 hPa 0,0 l/m 0 min 0 min 0 W/m 19,3 km/h (3 Bft) 100,00 %
11.12.2020 06:38 0,9 C 0,6 C -0,6 C 91 % 997,5 hPa 0,0 l/m 0 min 0 min 0 W/m 12,9 km/h (3 Bft) 100,00 %
11.12.2020 06:40 0,9 C 0,6 C -0,6 C 91 % 997,5 hPa 0,0 l/m 0 min 0 min 0 W/m 16,1 km/h (3 Bft) 100,00 %
11.12.2020 06:42 0,9 C 0,6 C -0,6 C 91 % 997,5 hPa 0,0 l/m 0 min 0 min 0 W/m 12,9 km/h (3 Bft) 100,00 %
11.12.2020 06:44 0,9 C 0,6 C -0,6 C 91 % 997,5 hPa 0,0 l/m 0 min 0 min 0 W/m 12,9 km/h (3 Bft) 97,87 %
11.12.2020 06:46 1,0 C 0,6 C -0,6 C 91 % 997,3 hPa 0,0 l/m 0 min 0 min 0 W/m 12,9 km/h (3 Bft) 95,74 %
11.12.2020 06:48 1,0 C 0,6 C -0,6 C 91 % 997,4 hPa 0,0 l/m 0 min 0 min 0 W/m 19,3 km/h (3 Bft) 100,00 %
11.12.2020 06:50 1,0 C 0,6 C -0,6 C 91 % 997,3 hPa 0,0 l/m 0 min 0 min 0 W/m 6,4 km/h (2 Bft) 97,87 %
11.12.2020 06:52 1,0 C 0,6 C -0,6 C 91 % 997,3 hPa 0,0 l/m 0 min 0 min 0 W/m 6,4 km/h (2 Bft) 100,00 %
11.12.2020 06:54 1,0 C 0,6 C -0,6 C 91 % 997,2 hPa 0,0 l/m 0 min 0 min 0 W/m 6,4 km/h (2 Bft) 100,00 %
11.12.2020 06:56 1,0 C 0,6 C -0,6 C 91 % 997,2 hPa 0,0 l/m 0 min 0 min 0 W/m 9,7 km/h (2 Bft) 100,00 %
11.12.2020 06:58 1,0 C 0,6 C -0,6 C 91 % 997,1 hPa 0,0 l/m 0 min 0 min 0 W/m 9,7 km/h (2 Bft) 100,00 %
11.12.2020 07:00 0,9 C 0,6 C -0,6 C 91 % 997,0 hPa 0,0 l/m 0 min 0 min 0 W/m 12,9 km/h (3 Bft) 100,00 %
11.12.2020 07:02 1,0 C 0,6 C -0,6 C 91 % 997,0 hPa 0,0 l/m 0 min 0 min 0 W/m 9,7 km/h (2 Bft) 93,62 %
11.12.2020 07:04 1,0 C 0,6 C -0,6 C 91 % 997,0 hPa 0,0 l/m 0 min 0 min 0 W/m 6,4 km/h (2 Bft) 100,00 %
11.12.2020 07:06 1,0 C 0,6 C -0,6 C 91 % 996,9 hPa 0,0 l/m 0 min 0 min 0 W/m 9,7 km/h (2 Bft) 100,00 %
11.12.2020 07:08 1,0 C 0,6 C -0,6 C 91 % 996,9 hPa 0,0 l/m 0 min 0 min 0 W/m 12,9 km/h (3 Bft) 97,92 %
11.12.2020 07:10 1,0 C 0,6 C -0,6 C 91 % 996,8 hPa 0,0 l/m 0 min 0 min 0 W/m 9,7 km/h (2 Bft) 100,00 %
11.12.2020 07:12 1,0 C 0,6 C -0,6 C 91 % 996,7 hPa 0,0 l/m 0 min 0 min 0 W/m 12,9 km/h (3 Bft) 97,87 %
11.12.2020 07:14 1,0 C 0,6 C -0,6 C 91 % 996,7 hPa 0,0 l/m 0 min 0 min 0 W/m 12,9 km/h (3 Bft) 100,00 %
11.12.2020 07:16 1,0 C 0,6 C -0,6 C 91 % 996,7 hPa 0,0 l/m 0 min 0 min 0 W/m 12,9 km/h (3 Bft) 100,00 %
11.12.2020 07:18 1,0 C 0,6 C -0,6 C 91 % 996,6 hPa 0,0 l/m 0 min 0 min 0 W/m 12,9 km/h (3 Bft) 100,00 %
11.12.2020 07:20 1,0 C 0,6 C -0,6 C 91 % 996,5 hPa 0,0 l/m 0 min 0 min 0 W/m 12,9 km/h (3 Bft) 97,87 %
11.12.2020 07:22 1,0 C 0,6 C -0,6 C 91 % 996,6 hPa 0,0 l/m 0 min 0 min 0 W/m 9,7 km/h (2 Bft) 97,87 %
11.12.2020 07:24 1,0 C 0,6 C -0,6 C 91 % 996,7 hPa 0,0 l/m 0 min 0 min 0 W/m 6,4 km/h (2 Bft) 97,87 %
11.12.2020 07:26 1,1 C 0,6 C -0,6 C 91 % 996,6 hPa 0,0 l/m 0 min 0 min 0 W/m 19,3 km/h (3 Bft) 93,62 %
11.12.2020 07:28 1,1 C 0,6 C -0,6 C 91 % 996,6 hPa 0,0 l/m 0 min 0 min 0 W/m 12,9 km/h (3 Bft) 98,11 %
11.12.2020 07:30 1,1 C 0,6 C -0,6 C 91 % 996,6 hPa 0,0 l/m 0 min 0 min 0 W/m 22,5 km/h (4 Bft) 93,62 %
11.12.2020 07:32 1,1 C 0,6 C -0,6 C 91 % 996,6 hPa 0,0 l/m 0 min 0 min 0 W/m 9,7 km/h (2 Bft) 97,87 %
11.12.2020 07:34 1,1 C 0,6 C -0,6 C 91 % 996,5 hPa 0,0 l/m 0 min 0 min 0 W/m 19,3 km/h (3 Bft) 70,21 %
11.12.2020 07:36 1,1 C 0,6 C -0,6 C 91 % 996,5 hPa 0,0 l/m 0 min 0 min 0 W/m 16,1 km/h (3 Bft) 76,47 %
11.12.2020 07:38 1,1 C 0,6 C -0,6 C 91 % 996,5 hPa 0,0 l/m 0 min 0 min 0 W/m 16,1 km/h (3 Bft) 97,87 %
11.12.2020 07:40 1,1 C 0,6 C -0,6 C 91 % 996,4 hPa 0,0 l/m 0 min 0 min 0 W/m 19,3 km/h (3 Bft) 95,74 %
11.12.2020 07:42 1,1 C 0,6 C -0,6 C 91 % 996,4 hPa 0,0 l/m 0 min 0 min 0 W/m 12,9 km/h (3 Bft) 97,87 %
11.12.2020 07:44 1,1 C 0,6 C -0,6 C 91 % 996,4 hPa 0,0 l/m 0 min 0 min 0 W/m 12,9 km/h (3 Bft) 97,87 %
11.12.2020 07:46 1,1 C 0,6 C -0,6 C 91 % 996,4 hPa 0,0 l/m 0 min 0 min 0 W/m 19,3 km/h (3 Bft) 97,87 %
11.12.2020 07:48 1,1 C 0,6 C -0,1 C 91 % 996,4 hPa 0,0 l/m 0 min 0 min 0 W/m 16,1 km/h (3 Bft) 97,83 %
11.12.2020 07:50 1,2 C 0,6 C -0,6 C 91 % 996,5 hPa 0,0 l/m 0 min 0 min 0 W/m 6,4 km/h (2 Bft) 97,87 %
11.12.2020 07:52 1,2 C 0,6 C -0,6 C 91 % 996,4 hPa 0,0 l/m 0 min 0 min 0 W/m 9,7 km/h (2 Bft) 95,74 %
11.12.2020 07:54 1,2 C 0,6 C -0,6 C 91 % 996,5 hPa 0,0 l/m 0 min 0 min 0 W/m 22,5 km/h (4 Bft) 97,87 %
11.12.2020 07:56 1,2 C 0,6 C -0,6 C 91 % 996,5 hPa 0,0 l/m 0 min 0 min 0 W/m 6,4 km/h (2 Bft) 97,87 %
11.12.2020 07:58 1,2 C 0,6 C -0,6 C 91 % 996,4 hPa 0,0 l/m 0 min 0 min 0 W/m 19,3 km/h (3 Bft) 95,74 %
11.12.2020 08:00 1,2 C 0,6 C -0,6 C 91 % 996,4 hPa 0,0 l/m 0 min 0 min 0 W/m 12,9 km/h (3 Bft) 97,83 %
11.12.2020 08:02 1,2 C 1,1 C -0,6 C 91 % 996,4 hPa 0,0 l/m 0 min 0 min 0 W/m 12,9 km/h (3 Bft) 97,87 %
11.12.2020 08:04 1,3 C 1,1 C -0,6 C 91 % 996,4 hPa 0,0 l/m 0 min 0 min 0 W/m 12,9 km/h (3 Bft) 97,87 %
11.12.2020 08:06 1,3 C 1,1 C -0,1 C 91 % 996,3 hPa 0,0 l/m 0 min 0 min 0 W/m 19,3 km/h (3 Bft) 100,00 %
11.12.2020 08:08 1,3 C 1,1 C -0,1 C 91 % 996,3 hPa 0,0 l/m 0 min 0 min 0 W/m 16,1 km/h (3 Bft) 100,00 %
11.12.2020 08:10 1,3 C 1,1 C -0,1 C 91 % 996,2 hPa 0,0 l/m 0 min 0 min 0 W/m 19,3 km/h (3 Bft) 100,00 %
11.12.2020 08:12 1,4 C 1,1 C -0,1 C 91 % 996,2 hPa 0,0 l/m 0 min 0 min 0 W/m 22,5 km/h (4 Bft) 100,00 %
11.12.2020 08:14 1,4 C 1,1 C -0,1 C 91 % 996,1 hPa 0,0 l/m 0 min 0 min 0 W/m 12,9 km/h (3 Bft) 100,00 %
11.12.2020 08:16 1,4 C 1,1 C -0,1 C 91 % 996,1 hPa 0,0 l/m 0 min 0 min 0 W/m 16,1 km/h (3 Bft) 97,87 %
11.12.2020 08:18 1,4 C 1,1 C -0,1 C 91 % 996,1 hPa 0,0 l/m 0 min 0 min 0 W/m 29,0 km/h (5 Bft) 100,00 %
11.12.2020 08:20 1,5 C 1,1 C -0,1 C 91 % 996,1 hPa 0,0 l/m 0 min 0 min 0 W/m 12,9 km/h (3 Bft) 100,00 %
11.12.2020 08:22 1,5 C 1,1 C -0,1 C 91 % 996,0 hPa 0,0 l/m 0 min 0 min 0 W/m 19,3 km/h (3 Bft) 100,00 %
11.12.2020 08:24 1,5 C 1,1 C -0,1 C 90 % 996,0 hPa 0,0 l/m 0 min 0 min 0 W/m 19,3 km/h (3 Bft) 97,83 %
11.12.2020 08:26 1,5 C 1,1 C -0,1 C 90 % 996,0 hPa 0,0 l/m 0 min 0 min 0 W/m 19,3 km/h (3 Bft) 100,00 %
11.12.2020 08:28 1,5 C 1,1 C -0,1 C 90 % 996,0 hPa 0,0 l/m 0 min 0 min 0 W/m 19,3 km/h (3 Bft) 100,00 %
11.12.2020 08:30 1,5 C 1,1 C -0,1 C 90 % 996,1 hPa 0,0 l/m 0 min 0 min 0 W/m 16,1 km/h (3 Bft) 100,00 %
11.12.2020 08:32 1,5 C 1,1 C -0,1 C 90 % 996,0 hPa 0,0 l/m 0 min 0 min 0 W/m 19,3 km/h (3 Bft) 100,00 %
11.12.2020 08:34 1,5 C 1,1 C -0,1 C 90 % 996,1 hPa 0,0 l/m 0 min 0 min 4 W/m 22,5 km/h (4 Bft) 97,87 %
11.12.2020 08:36 1,5 C 1,1 C -0,1 C 90 % 996,0 hPa 0,0 l/m 0 min 0 min 5 W/m 9,7 km/h (2 Bft) 97,83 %
11.12.2020 08:38 1,5 C 1,1 C -0,1 C 90 % 996,0 hPa 0,0 l/m 0 min 0 min 5 W/m 22,5 km/h (4 Bft) 97,87 %
11.12.2020 08:40 1,5 C 1,1 C -0,1 C 90 % 996,0 hPa 0,0 l/m 0 min 0 min 6 W/m 16,1 km/h (3 Bft) 97,87 %
11.12.2020 08:42 1,5 C 1,1 C -0,1 C 90 % 996,0 hPa 0,0 l/m 0 min 0 min 7 W/m 12,9 km/h (3 Bft) 95,74 %
11.12.2020 08:44 1,5 C 1,1 C -0,1 C 90 % 996,0 hPa 0,0 l/m 0 min 0 min 8 W/m 19,3 km/h (3 Bft) 97,87 %
11.12.2020 08:46 1,5 C 1,1 C -0,1 C 90 % 996,0 hPa 0,0 l/m 0 min 0 min 10 W/m 22,5 km/h (4 Bft) 95,65 %
11.12.2020 08:48 1,5 C 1,1 C -0,1 C 90 % 996,0 hPa 0,0 l/m 0 min 0 min 11 W/m 19,3 km/h (3 Bft) 95,74 %
11.12.2020 08:50 1,5 C 1,1 C -0,1 C 90 % 996,0 hPa 0,0 l/m 0 min 0 min 11 W/m 9,7 km/h (2 Bft) 96,00 %
11.12.2020 08:52 1,5 C 1,1 C -0,1 C 90 % 996,0 hPa 0,0 l/m 0 min 0 min 12 W/m 22,5 km/h (4 Bft) 97,87 %
11.12.2020 08:54 1,5 C 1,1 C -0,1 C 90 % 996,1 hPa 0,0 l/m 0 min 0 min 12 W/m 19,3 km/h (3 Bft) 95,74 %
11.12.2020 08:56 1,5 C 1,1 C -0,1 C 90 % 996,1 hPa 0,0 l/m 0 min 0 min 14 W/m 19,3 km/h (3 Bft) 95,74 %
11.12.2020 08:58 1,6 C 1,1 C -0,1 C 90 % 996,1 hPa 0,0 l/m 0 min 0 min 18 W/m 19,3 km/h (3 Bft) 97,83 %
11.12.2020 09:00 1,6 C 1,1 C -0,1 C 90 % 996,1 hPa 0,0 l/m 0 min 0 min 19 W/m 16,1 km/h (3 Bft) 95,74 %
11.12.2020 09:02 1,6 C 1,1 C -0,1 C 90 % 996,0 hPa 0,0 l/m 0 min 0 min 21 W/m 16,1 km/h (3 Bft) 93,62 %
11.12.2020 09:04 1,6 C 1,1 C -0,1 C 90 % 996,0 hPa 0,0 l/m 0 min 0 min 21 W/m 22,5 km/h (4 Bft) 95,74 %
11.12.2020 09:06 1,6 C 1,1 C -0,1 C 90 % 996,0 hPa 0,0 l/m 0 min 0 min 20 W/m 19,3 km/h (3 Bft) 95,74 %
11.12.2020 09:08 1,6 C 1,1 C -0,1 C 90 % 996,1 hPa 0,0 l/m 0 min 0 min 19 W/m 16,1 km/h (3 Bft) 97,92 %
11.12.2020 09:10 1,6 C 1,1 C -0,1 C 90 % 996,0 hPa 0,0 l/m 0 min 0 min 20 W/m 19,3 km/h (3 Bft) 97,83 %
11.12.2020 09:12 1,6 C 1,1 C -0,1 C 90 % 996,0 hPa 0,0 l/m 0 min 0 min 21 W/m 29,0 km/h (5 Bft) 76,60 %
11.12.2020 09:14 1,6 C 1,1 C -0,1 C 90 % 996,0 hPa 0,0 l/m 0 min 0 min 22 W/m 12,9 km/h (3 Bft) 76,09 %
11.12.2020 09:16 1,6 C 1,7 C 0,5 C 90 % 996,0 hPa 0,0 l/m 0 min 0 min 24 W/m 12,9 km/h (3 Bft) 95,74 %
11.12.2020 09:18 1,7 C 1,7 C 0,5 C 90 % 996,1 hPa 0,0 l/m 0 min 0 min 26 W/m 12,9 km/h (3 Bft) 97,87 %
11.12.2020 09:20 1,7 C 1,7 C 0,5 C 90 % 995,9 hPa 0,0 l/m 0 min 0 min 27 W/m 16,1 km/h (3 Bft) 97,14 %
11.12.2020 09:22 1,7 C 1,7 C 0,5 C 90 % 996,0 hPa 0,0 l/m 0 min 0 min 28 W/m 12,9 km/h (3 Bft) 100,00 %
11.12.2020 09:24 1,7 C 1,7 C 0,5 C 90 % 995,9 hPa 0,0 l/m 0 min 0 min 28 W/m 22,5 km/h (4 Bft) 95,74 %
11.12.2020 09:26 1,8 C 1,7 C 0,5 C 90 % 995,9 hPa 0,0 l/m 0 min 0 min 28 W/m 12,9 km/h (3 Bft) 100,00 %
11.12.2020 09:28 1,8 C 1,7 C 0,5 C 90 % 995,9 hPa 0,0 l/m 0 min 0 min 29 W/m 22,5 km/h (4 Bft) 100,00 %
11.12.2020 09:30 1,8 C 1,7 C 0,5 C 90 % 995,8 hPa 0,0 l/m 0 min 0 min 30 W/m 16,1 km/h (3 Bft) 97,87 %
11.12.2020 09:32 1,9 C 1,7 C 0,5 C 90 % 995,8 hPa 0,0 l/m 0 min 0 min 32 W/m 19,3 km/h (3 Bft) 100,00 %
11.12.2020 09:34 1,9 C 1,7 C 0,5 C 90 % 995,8 hPa 0,0 l/m 0 min 0 min 32 W/m 19,3 km/h (3 Bft) 97,87 %
11.12.2020 09:36 1,9 C 1,7 C 0,5 C 90 % 995,8 hPa 0,0 l/m 0 min 0 min 33 W/m 19,3 km/h (3 Bft) 95,74 %
11.12.2020 09:38 1,9 C 1,7 C 0,5 C 90 % 995,8 hPa 0,0 l/m 0 min 0 min 34 W/m 19,3 km/h (3 Bft) 98,28 %
11.12.2020 09:40 1,9 C 1,7 C 0,5 C 90 % 995,7 hPa 0,0 l/m 0 min 0 min 34 W/m 16,1 km/h (3 Bft) 93,48 %
11.12.2020 09:42 2,0 C 1,7 C 0,5 C 89 % 995,8 hPa 0,0 l/m 0 min 0 min 35 W/m 22,5 km/h (4 Bft) 100,00 %
11.12.2020 09:44 2,0 C 1,7 C 0,5 C 89 % 995,7 hPa 0,0 l/m 0 min 0 min 35 W/m 19,3 km/h (3 Bft) 97,83 %
11.12.2020 09:46 2,0 C 1,7 C 0,5 C 89 % 995,7 hPa 0,0 l/m 0 min 0 min 35 W/m 19,3 km/h (3 Bft) 100,00 %
11.12.2020 09:48 2,0 C 2,2 C 0,5 C 89 % 995,6 hPa 0,0 l/m 0 min 0 min 34 W/m 19,3 km/h (3 Bft) 95,74 %
11.12.2020 09:50 2,0 C 2,2 C 0,5 C 89 % 995,6 hPa 0,0 l/m 0 min 0 min 33 W/m 16,1 km/h (3 Bft) 100,00 %
11.12.2020 09:52 2,1 C 2,2 C 0,5 C 89 % 995,6 hPa 0,0 l/m 0 min 0 min 34 W/m 25,7 km/h (4 Bft) 100,00 %
11.12.2020 09:54 2,1 C 2,2 C 0,5 C 89 % 995,5 hPa 0,0 l/m 0 min 0 min 35 W/m 16,1 km/h (3 Bft) 100,00 %
11.12.2020 09:56 2,1 C 2,2 C 0,5 C 89 % 995,6 hPa 0,0 l/m 0 min 0 min 35 W/m 29,0 km/h (5 Bft) 100,00 %
11.12.2020 09:58 2,2 C 2,2 C 1,1 C 90 % 995,6 hPa 0,0 l/m 0 min 0 min 33 W/m 19,3 km/h (3 Bft) 97,87 %
11.12.2020 10:00 2,3 C 2,2 C 1,1 C 90 % 995,6 hPa 0,0 l/m 0 min 0 min 33 W/m 25,7 km/h (4 Bft) 97,87 %
11.12.2020 10:02 2,3 C 2,2 C 1,1 C 90 % 995,6 hPa 0,0 l/m 0 min 0 min 31 W/m 16,1 km/h (3 Bft) 100,00 %
11.12.2020 10:04 2,3 C 2,2 C 1,1 C 89 % 995,6 hPa 0,0 l/m 0 min 0 min 30 W/m 16,1 km/h (3 Bft) 93,62 %
11.12.2020 10:06 2,4 C 2,2 C 1,1 C 89 % 995,6 hPa 0,0 l/m 0 min 0 min 30 W/m 12,9 km/h (3 Bft) 97,87 %
11.12.2020 10:08 2,4 C 2,2 C 1,1 C 89 % 995,6 hPa 0,0 l/m 0 min 0 min 30 W/m 16,1 km/h (3 Bft) 97,87 %
11.12.2020 10:10 2,4 C 2,2 C 1,1 C 89 % 995,6 hPa 0,0 l/m 0 min 0 min 30 W/m 19,3 km/h (3 Bft) 97,87 %
11.12.2020 10:12 2,4 C 2,2 C 1,1 C 89 % 995,6 hPa 0,0 l/m 0 min 0 min 30 W/m 19,3 km/h (3 Bft) 95,74 %
11.12.2020 10:14 2,5 C 2,2 C 1,1 C 89 % 995,6 hPa 0,0 l/m 0 min 0 min 30 W/m 16,1 km/h (3 Bft) 95,74 %
11.12.2020 10:16 2,5 C 2,2 C 1,1 C 89 % 995,5 hPa 0,0 l/m 0 min 0 min 30 W/m 16,1 km/h (3 Bft) 97,87 %
11.12.2020 10:18 2,5 C 2,2 C 1,1 C 89 % 995,5 hPa 0,0 l/m 0 min 0 min 32 W/m 12,9 km/h (3 Bft) 97,83 %
11.12.2020 10:20 2,5 C 2,2 C 1,1 C 89 % 995,5 hPa 0,0 l/m 0 min 0 min 34 W/m 19,3 km/h (3 Bft) 95,74 %
11.12.2020 10:22 2,5 C 2,2 C 1,1 C 89 % 995,5 hPa 0,0 l/m 0 min 0 min 38 W/m 16,1 km/h (3 Bft) 97,87 %
11.12.2020 10:24 2,6 C 2,8 C 1,1 C 89 % 995,5 hPa 0,0 l/m 0 min 0 min 42 W/m 41,8 km/h (6 Bft) 97,87 %
11.12.2020 10:26 2,6 C 2,8 C 1,6 C 89 % 995,5 hPa 0,0 l/m 0 min 0 min 46 W/m 19,3 km/h (3 Bft) 95,74 %
11.12.2020 10:28 2,6 C 2,8 C 1,6 C 89 % 995,5 hPa 0,0 l/m 0 min 0 min 47 W/m 16,1 km/h (3 Bft) 97,87 %
11.12.2020 10:30 2,6 C 2,8 C 1,6 C 89 % 995,4 hPa 0,0 l/m 0 min 0 min 48 W/m 12,9 km/h (3 Bft) 97,83 %
11.12.2020 10:32 2,7 C 2,8 C 1,6 C 89 % 995,4 hPa 0,0 l/m 0 min 0 min 43 W/m 12,9 km/h (3 Bft) 95,74 %
11.12.2020 10:34 2,7 C 2,2 C 1,1 C 89 % 995,4 hPa 0,0 l/m 0 min 0 min 40 W/m 16,1 km/h (3 Bft) 97,87 %
11.12.2020 10:36 2,8 C 2,2 C 1,1 C 89 % 995,3 hPa 0,0 l/m 0 min 2 min 39 W/m 16,1 km/h (3 Bft) 95,74 %
11.12.2020 10:38 2,8 C 1,7 C 1,1 C 89 % 995,4 hPa 0,0 l/m 0 min 2 min 39 W/m 25,7 km/h (4 Bft) 95,74 %
11.12.2020 10:40 2,8 C 1,7 C 0,5 C 89 % 995,4 hPa 0,0 l/m 0 min 2 min 39 W/m 12,9 km/h (3 Bft) 95,74 %
11.12.2020 10:42 2,8 C 1,7 C 0,5 C 89 % 995,4 hPa 0,0 l/m 0 min 2 min 40 W/m 19,3 km/h (3 Bft) 95,65 %
11.12.2020 10:44 2,8 C 1,1 C 0,5 C 90 % 995,3 hPa 0,2 l/m 0 min 2 min 46 W/m 29,0 km/h (5 Bft) 100,00 %
11.12.2020 10:46 2,8 C 1,7 C 0,5 C 90 % 995,4 hPa 0,0 l/m 0 min 2 min 49 W/m 16,1 km/h (3 Bft) 100,00 %
11.12.2020 10:48 2,8 C 1,7 C 0,5 C 90 % 995,3 hPa 0,0 l/m 0 min 2 min 46 W/m 25,7 km/h (4 Bft) 100,00 %
11.12.2020 10:50 2,7 C 1,7 C 0,5 C 90 % 995,3 hPa 0,0 l/m 0 min 2 min 46 W/m 16,1 km/h (3 Bft) 100,00 %
11.12.2020 10:52 2,7 C 1,7 C 0,5 C 90 % 995,2 hPa 0,0 l/m 0 min 2 min 47 W/m 19,3 km/h (3 Bft) 97,87 %
11.12.2020 10:54 2,7 C 1,7 C 0,5 C 90 % 995,3 hPa 0,0 l/m 0 min 0 min 49 W/m 16,1 km/h (3 Bft) 100,00 %
11.12.2020 10:56 2,7 C 1,7 C 0,5 C 90 % 995,3 hPa 0,0 l/m 0 min 0 min 47 W/m 19,3 km/h (3 Bft) 100,00 %
11.12.2020 10:58 2,7 C 1,7 C 0,5 C 91 % 995,3 hPa 0,0 l/m 0 min 2 min 46 W/m 19,3 km/h (3 Bft) 100,00 %
11.12.2020 11:00 2,7 C 1,7 C 0,5 C 91 % 995,2 hPa 0,0 l/m 0 min 0 min 46 W/m 16,1 km/h (3 Bft) 100,00 %
11.12.2020 11:02 2,8 C 2,2 C 1,1 C 91 % 995,2 hPa 0,0 l/m 0 min 0 min 46 W/m 16,1 km/h (3 Bft) 57,45 %
11.12.2020 11:04 2,8 C 2,2 C 1,1 C 91 % 995,1 hPa 0,0 l/m 0 min 0 min 47 W/m 12,9 km/h (3 Bft) 100,00 %
11.12.2020 11:06 2,8 C 2,2 C 1,1 C 91 % 995,2 hPa 0,0 l/m 0 min 0 min 51 W/m 16,1 km/h (3 Bft) 100,00 %
11.12.2020 11:08 2,9 C 2,2 C 1,1 C 91 % 995,1 hPa 0,0 l/m 0 min 0 min 51 W/m 16,1 km/h (3 Bft) 100,00 %
11.12.2020 11:10 2,9 C 2,2 C 1,1 C 91 % 995,1 hPa 0,0 l/m 0 min 0 min 49 W/m 25,7 km/h (4 Bft) 100,00 %
11.12.2020 11:12 2,9 C 2,2 C 1,1 C 91 % 995,0 hPa 0,0 l/m 0 min 0 min 47 W/m 19,3 km/h (3 Bft) 100,00 %
11.12.2020 11:14 3,0 C 2,2 C 1,1 C 91 % 995,0 hPa 0,0 l/m 0 min 0 min 45 W/m 16,1 km/h (3 Bft) 100,00 %
11.12.2020 11:16 3,0 C 2,8 C 1,1 C 91 % 995,1 hPa 0,0 l/m 0 min 0 min 45 W/m 22,5 km/h (4 Bft) 97,87 %
11.12.2020 11:18 3,1 C 2,8 C 1,1 C 91 % 995,0 hPa 0,0 l/m 0 min 0 min 48 W/m 19,3 km/h (3 Bft) 97,87 %
11.12.2020 11:20 3,1 C 2,8 C 1,1 C 91 % 994,9 hPa 0,0 l/m 0 min 0 min 52 W/m 16,1 km/h (3 Bft) 97,87 %
11.12.2020 11:22 3,2 C 2,8 C 1,6 C 91 % 994,9 hPa 0,0 l/m 0 min 0 min 55 W/m 12,9 km/h (3 Bft) 91,30 %
11.12.2020 11:24 3,2 C 2,8 C 1,6 C 91 % 994,8 hPa 0,0 l/m 0 min 0 min 58 W/m 16,1 km/h (3 Bft) 97,87 %
11.12.2020 11:26 3,3 C 2,8 C 1,6 C 91 % 994,8 hPa 0,0 l/m 0 min 0 min 63 W/m 29,0 km/h (5 Bft) 97,87 %
11.12.2020 11:28 3,3 C 2,8 C 1,6 C 91 % 994,7 hPa 0,0 l/m 0 min 0 min 64 W/m 22,5 km/h (4 Bft) 95,74 %
11.12.2020 11:30 3,4 C 2,8 C 1,6 C 90 % 994,8 hPa 0,0 l/m 0 min 0 min 61 W/m 19,3 km/h (3 Bft) 97,87 %
11.12.2020 11:32 3,4 C 2,8 C 1,6 C 90 % 994,8 hPa 0,0 l/m 0 min 0 min 60 W/m 25,7 km/h (4 Bft) 95,74 %
11.12.2020 11:34 3,4 C 3,3 C 1,6 C 90 % 994,8 hPa 0,0 l/m 0 min 0 min 62 W/m 19,3 km/h (3 Bft) 97,83 %
11.12.2020 11:36 3,5 C 3,3 C 1,6 C 90 % 994,6 hPa 0,0 l/m 0 min 0 min 64 W/m 16,1 km/h (3 Bft) 97,87 %
11.12.2020 11:38 3,5 C 3,3 C 1,6 C 90 % 994,5 hPa 0,0 l/m 0 min 0 min 66 W/m 12,9 km/h (3 Bft) 98,31 %
11.12.2020 11:40 3,5 C 3,3 C 1,6 C 90 % 994,6 hPa 0,0 l/m 0 min 0 min 67 W/m 19,3 km/h (3 Bft) 97,14 %
11.12.2020 11:42 3,5 C 2,8 C 1,6 C 90 % 994,5 hPa 0,0 l/m 0 min 0 min 69 W/m 25,7 km/h (4 Bft) 97,87 %
11.12.2020 11:44 3,5 C 3,3 C 1,6 C 90 % 994,6 hPa 0,0 l/m 0 min 0 min 73 W/m 16,1 km/h (3 Bft) 97,87 %
11.12.2020 11:46 3,5 C 3,3 C 1,6 C 90 % 994,5 hPa 0,0 l/m 0 min 0 min 76 W/m 19,3 km/h (3 Bft) 95,65 %
11.12.2020 11:48 3,6 C 3,3 C 2,2 C 90 % 994,6 hPa 0,0 l/m 0 min 0 min 73 W/m 19,3 km/h (3 Bft) 97,87 %
11.12.2020 11:50 3,6 C 3,3 C 2,2 C 90 % 994,5 hPa 0,0 l/m 0 min 0 min 67 W/m 16,1 km/h (3 Bft) 97,87 %
11.12.2020 11:52 3,6 C 3,3 C 2,2 C 90 % 994,5 hPa 0,0 l/m 0 min 0 min 60 W/m 19,3 km/h (3 Bft) 95,74 %
11.12.2020 11:54 3,6 C 3,3 C 2,2 C 90 % 994,5 hPa 0,0 l/m 0 min 0 min 56 W/m 25,7 km/h (4 Bft) 97,87 %
11.12.2020 11:56 3,6 C 3,3 C 2,2 C 90 % 994,5 hPa 0,0 l/m 0 min 0 min 53 W/m 19,3 km/h (3 Bft) 97,87 %
11.12.2020 11:58 3,6 C 3,3 C 2,2 C 90 % 994,4 hPa 0,0 l/m 0 min 0 min 53 W/m 16,1 km/h (3 Bft) 97,83 %
11.12.2020 12:00 3,7 C 3,3 C 2,2 C 89 % 994,3 hPa 0,0 l/m 0 min 0 min 54 W/m 22,5 km/h (4 Bft) 97,87 %
11.12.2020 12:02 3,7 C 3,3 C 2,2 C 90 % 994,3 hPa 0,0 l/m 0 min 0 min 59 W/m 19,3 km/h (3 Bft) 51,16 %
11.12.2020 12:04 3,7 C 3,3 C 2,2 C 90 % 994,2 hPa 0,0 l/m 0 min 0 min 62 W/m 19,3 km/h (3 Bft) 100,00 %
11.12.2020 12:08 3,8 C 3,3 C 2,2 C 90 % 994,2 hPa 0,0 l/m 0 min 0 min 64 W/m 25,7 km/h (4 Bft) 97,85 %
11.12.2020 12:10 3,8 C 3,3 C 2,2 C 90 % 994,1 hPa 0,0 l/m 0 min 0 min 69 W/m 19,3 km/h (3 Bft) 97,87 %
11.12.2020 12:12 3,8 C 3,3 C 2,2 C 90 % 994,0 hPa 0,0 l/m 0 min 0 min 70 W/m 19,3 km/h (3 Bft) 97,87 %
11.12.2020 12:14 3,8 C 3,3 C 2,2 C 90 % 994,1 hPa 0,0 l/m 0 min 0 min 67 W/m 16,1 km/h (3 Bft) 95,74 %
11.12.2020 12:16 3,8 C 3,3 C 2,2 C 90 % 994,0 hPa 0,0 l/m 0 min 0 min 61 W/m 16,1 km/h (3 Bft) 100,00 %
11.12.2020 12:18 3,8 C 3,3 C 2,2 C 90 % 994,1 hPa 0,0 l/m 0 min 0 min 57 W/m 16,1 km/h (3 Bft) 100,00 %
11.12.2020 12:20 3,8 C 3,3 C 2,2 C 90 % 994,0 hPa 0,0 l/m 0 min 0 min 49 W/m 12,9 km/h (3 Bft) 97,92 %
11.12.2020 12:22 3,9 C 3,3 C 2,2 C 90 % 994,0 hPa 0,0 l/m 0 min 0 min 37 W/m 16,1 km/h (3 Bft) 100,00 %
11.12.2020 12:24 3,9 C 3,3 C 2,2 C 90 % 994,0 hPa 0,0 l/m 0 min 0 min 33 W/m 16,1 km/h (3 Bft) 97,87 %
11.12.2020 12:26 3,9 C 3,3 C 2,2 C 90 % 994,0 hPa 0,0 l/m 0 min 0 min 38 W/m 16,1 km/h (3 Bft) 97,87 %
11.12.2020 12:28 3,9 C 2,8 C 2,2 C 90 % 994,0 hPa 0,0 l/m 0 min 0 min 42 W/m 19,3 km/h (3 Bft) 100,00 %
11.12.2020 12:30 3,9 C 2,8 C 2,2 C 90 % 993,9 hPa 0,0 l/m 0 min 0 min 40 W/m 29,0 km/h (5 Bft) 100,00 %
11.12.2020 12:32 3,9 C 3,3 C 2,2 C 90 % 994,0 hPa 0,0 l/m 0 min 0 min 34 W/m 16,1 km/h (3 Bft) 97,83 %
11.12.2020 12:34 3,9 C 3,3 C 2,2 C 90 % 993,9 hPa 0,0 l/m 0 min 0 min 36 W/m 16,1 km/h (3 Bft) 97,87 %
11.12.2020 12:36 3,9 C 3,3 C 2,2 C 90 % 993,9 hPa 0,0 l/m 0 min 0 min 41 W/m 22,5 km/h (4 Bft) 100,00 %
11.12.2020 12:38 3,8 C 3,3 C 2,2 C 89 % 993,9 hPa 0,0 l/m 0 min 0 min 41 W/m 16,1 km/h (3 Bft) 97,87 %
11.12.2020 12:40 3,8 C 3,3 C 2,2 C 89 % 993,8 hPa 0,0 l/m 0 min 2 min 50 W/m 19,3 km/h (3 Bft) 95,74 %
11.12.2020 12:42 3,8 C 3,3 C 2,2 C 89 % 993,8 hPa 0,0 l/m 0 min 0 min 58 W/m 22,5 km/h (4 Bft) 95,74 %
11.12.2020 12:44 3,8 C 3,3 C 2,2 C 89 % 993,8 hPa 0,0 l/m 0 min 0 min 62 W/m 19,3 km/h (3 Bft) 95,74 %
11.12.2020 12:46 3,8 C 3,3 C 2,2 C 90 % 993,8 hPa 0,0 l/m 0 min 0 min 63 W/m 19,3 km/h (3 Bft) 97,83 %
11.12.2020 12:48 3,9 C 3,3 C 2,2 C 90 % 993,7 hPa 0,0 l/m 0 min 2 min 60 W/m 16,1 km/h (3 Bft) 97,87 %
11.12.2020 12:50 3,9 C 3,3 C 2,2 C 90 % 993,7 hPa 0,0 l/m 0 min 2 min 60 W/m 22,5 km/h (4 Bft) 97,87 %
11.12.2020 12:52 3,9 C 3,3 C 2,2 C 90 % 993,6 hPa 0,0 l/m 0 min 0 min 66 W/m 25,7 km/h (4 Bft) 97,87 %
11.12.2020 12:54 3,9 C 3,3 C 2,2 C 90 % 993,6 hPa 0,0 l/m 0 min 0 min 76 W/m 16,1 km/h (3 Bft) 97,87 %
11.12.2020 12:56 3,9 C 3,3 C 2,2 C 90 % 993,6 hPa 0,0 l/m 0 min 0 min 81 W/m 22,5 km/h (4 Bft) 97,87 %
11.12.2020 12:58 3,9 C 3,3 C 2,2 C 90 % 993,5 hPa 0,0 l/m 0 min 0 min 84 W/m 12,9 km/h (3 Bft) 97,83 %
11.12.2020 13:00 3,9 C 3,3 C 2,2 C 90 % 993,5 hPa 0,0 l/m 0 min 0 min 86 W/m 19,3 km/h (3 Bft) 95,74 %
11.12.2020 13:02 3,9 C 3,9 C 2,2 C 90 % 993,5 hPa 0,0 l/m 0 min 0 min 85 W/m 32,2 km/h (5 Bft) 95,74 %
11.12.2020 13:04 3,9 C 3,9 C 2,2 C 90 % 993,6 hPa 0,0 l/m 0 min 0 min 81 W/m 16,1 km/h (3 Bft) 70,21 %
11.12.2020 13:06 3,9 C 3,9 C 2,2 C 90 % 993,5 hPa 0,0 l/m 0 min 0 min 74 W/m 19,3 km/h (3 Bft) 82,98 %
11.12.2020 13:08 4,0 C 3,9 C 2,2 C 90 % 993,5 hPa 0,0 l/m 0 min 0 min 67 W/m 25,7 km/h (4 Bft) 97,87 %
11.12.2020 13:10 4,0 C 3,9 C 2,2 C 90 % 993,5 hPa 0,0 l/m 0 min 0 min 61 W/m 22,5 km/h (4 Bft) 95,65 %
11.12.2020 13:12 4,0 C 3,9 C 2,2 C 90 % 993,4 hPa 0,0 l/m 0 min 0 min 55 W/m 16,1 km/h (3 Bft) 97,87 %
11.12.2020 13:14 4,0 C 3,9 C 2,2 C 90 % 993,4 hPa 0,0 l/m 0 min 0 min 51 W/m 19,3 km/h (3 Bft) 95,74 %
11.12.2020 13:16 4,0 C 3,9 C 2,7 C 89 % 993,3 hPa 0,0 l/m 0 min 0 min 51 W/m 16,1 km/h (3 Bft) 97,87 %
11.12.2020 13:18 4,0 C 3,9 C 2,7 C 89 % 993,3 hPa 0,0 l/m 0 min 0 min 53 W/m 16,1 km/h (3 Bft) 97,87 %
11.12.2020 13:20 4,0 C 3,9 C 2,7 C 89 % 993,3 hPa 0,0 l/m 0 min 0 min 56 W/m 22,5 km/h (4 Bft) 95,74 %
11.12.2020 13:22 4,0 C 3,9 C 2,7 C 89 % 993,3 hPa 0,0 l/m 0 min 0 min 61 W/m 12,9 km/h (3 Bft) 97,83 %
11.12.2020 13:24 4,0 C 3,9 C 2,7 C 89 % 993,2 hPa 0,0 l/m 0 min 0 min 68 W/m 16,1 km/h (3 Bft) 95,74 %
11.12.2020 13:26 4,1 C 4,4 C 2,7 C 89 % 993,2 hPa 0,0 l/m 0 min 0 min 76 W/m 29,0 km/h (5 Bft) 100,00 %
11.12.2020 13:28 4,2 C 4,4 C 3,3 C 90 % 993,1 hPa 0,0 l/m 0 min 0 min 79 W/m 19,3 km/h (3 Bft) 100,00 %
11.12.2020 13:30 4,3 C 5,0 C 3,3 C 89 % 993,1 hPa 0,0 l/m 0 min 0 min 108 W/m 12,9 km/h (3 Bft) 100,00 %
11.12.2020 13:32 4,3 C 5,0 C 3,3 C 89 % 993,1 hPa 0,0 l/m 2 min 0 min 146 W/m 16,1 km/h (3 Bft) 95,74 %
11.12.2020 13:34 4,3 C 5,6 C 3,3 C 89 % 993,0 hPa 0,0 l/m 2 min 0 min 180 W/m 25,7 km/h (4 Bft) 100,00 %
11.12.2020 13:36 4,3 C 6,1 C 3,3 C 89 % 993,1 hPa 0,0 l/m 2 min 0 min 206 W/m 22,5 km/h (4 Bft) 97,87 %
11.12.2020 13:38 4,4 C 6,7 C 3,3 C 89 % 993,1 hPa 0,0 l/m 2 min 0 min 179 W/m 16,1 km/h (3 Bft) 100,00 %
11.12.2020 13:40 4,5 C 6,7 C 3,8 C 89 % 993,0 hPa 0,0 l/m 2 min 0 min 184 W/m 16,1 km/h (3 Bft) 100,00 %
11.12.2020 13:42 4,6 C 6,1 C 3,8 C 89 % 993,0 hPa 0,0 l/m 0 min 0 min 135 W/m 19,3 km/h (3 Bft) 100,00 %
11.12.2020 13:44 4,8 C 6,1 C 3,8 C 89 % 993,0 hPa 0,0 l/m 0 min 0 min 108 W/m 6,4 km/h (2 Bft) 100,00 %
11.12.2020 13:46 4,8 C 5,6 C 3,8 C 89 % 993,0 hPa 0,0 l/m 2 min 0 min 137 W/m 19,3 km/h (3 Bft) 100,00 %
11.12.2020 13:48 4,8 C 5,6 C 3,8 C 88 % 992,9 hPa 0,0 l/m 0 min 0 min 125 W/m 32,2 km/h (5 Bft) 100,00 %
11.12.2020 13:50 4,9 C 5,6 C 3,8 C 88 % 992,9 hPa 0,0 l/m 0 min 0 min 105 W/m 16,1 km/h (3 Bft) 97,87 %
11.12.2020 13:52 4,9 C 5,0 C 3,8 C 88 % 992,9 hPa 0,0 l/m 0 min 0 min 112 W/m 19,3 km/h (3 Bft) 97,87 %
11.12.2020 13:54 4,9 C 5,0 C 3,8 C 88 % 992,8 hPa 0,0 l/m 0 min 0 min 123 W/m 25,7 km/h (4 Bft) 97,83 %
11.12.2020 13:56 4,9 C 5,0 C 3,8 C 87 % 992,9 hPa 0,0 l/m 0 min 0 min 128 W/m 19,3 km/h (3 Bft) 97,87 %
11.12.2020 13:58 4,9 C 5,0 C 3,8 C 87 % 992,8 hPa 0,0 l/m 2 min 0 min 128 W/m 19,3 km/h (3 Bft) 97,87 %
11.12.2020 14:00 4,9 C 5,0 C 3,8 C 87 % 992,8 hPa 0,0 l/m 0 min 0 min 126 W/m 16,1 km/h (3 Bft) 93,62 %
11.12.2020 14:02 4,9 C 5,0 C 3,8 C 88 % 992,8 hPa 0,0 l/m 0 min 0 min 122 W/m 22,5 km/h (4 Bft) 95,74 %
11.12.2020 14:04 5,0 C 5,0 C 3,8 C 87 % 992,7 hPa 0,0 l/m 0 min 0 min 121 W/m 16,1 km/h (3 Bft) 93,48 %
11.12.2020 14:06 5,0 C 5,0 C 3,8 C 87 % 992,7 hPa 0,0 l/m 0 min 0 min 118 W/m 16,1 km/h (3 Bft) 95,74 %
11.12.2020 14:08 5,0 C 5,0 C 3,8 C 87 % 992,8 hPa 0,0 l/m 0 min 0 min 119 W/m 16,1 km/h (3 Bft) 95,74 %
11.12.2020 14:10 4,9 C 5,0 C 3,8 C 87 % 992,7 hPa 0,0 l/m 2 min 0 min 121 W/m 16,1 km/h (3 Bft) 95,74 %
11.12.2020 14:12 4,9 C 5,0 C 3,8 C 87 % 992,8 hPa 0,0 l/m 2 min 0 min 124 W/m 19,3 km/h (3 Bft) 95,74 %
11.12.2020 14:14 4,9 C 5,0 C 3,8 C 87 % 992,8 hPa 0,0 l/m 2 min 0 min 129 W/m 19,3 km/h (3 Bft) 97,87 %
11.12.2020 14:16 5,0 C 5,0 C 3,8 C 87 % 992,8 hPa 0,0 l/m 2 min 0 min 130 W/m 19,3 km/h (3 Bft) 95,65 %
11.12.2020 14:18 5,0 C 5,6 C 3,8 C 87 % 992,7 hPa 0,0 l/m 2 min 0 min 122 W/m 9,7 km/h (2 Bft) 93,62 %
11.12.2020 14:20 5,1 C 5,6 C 3,8 C 88 % 992,7 hPa 0,0 l/m 2 min 0 min 116 W/m 6,4 km/h (2 Bft) 91,49 %
11.12.2020 14:22 5,1 C 5,0 C 3,8 C 87 % 992,7 hPa 0,0 l/m 0 min 0 min 109 W/m 19,3 km/h (3 Bft) 95,74 %
11.12.2020 14:24 5,1 C 5,0 C 3,8 C 87 % 992,7 hPa 0,0 l/m 0 min 2 min 103 W/m 16,1 km/h (3 Bft) 95,74 %
11.12.2020 14:26 5,1 C 5,0 C 3,8 C 87 % 992,7 hPa 0,0 l/m 0 min 0 min 101 W/m 16,1 km/h (3 Bft) 95,74 %
11.12.2020 14:28 5,1 C 4,4 C 3,8 C 87 % 992,6 hPa 0,0 l/m 0 min 0 min 96 W/m 3,2 km/h (1 Bft) 95,65 %
11.12.2020 14:30 5,1 C 4,4 C 3,3 C 88 % 992,6 hPa 0,0 l/m 0 min 0 min 91 W/m 12,9 km/h (3 Bft) 95,74 %
11.12.2020 14:32 5,1 C 4,4 C 3,3 C 88 % 992,6 hPa 0,0 l/m 0 min 2 min 87 W/m 6,4 km/h (2 Bft) 95,74 %
11.12.2020 14:34 5,1 C 4,4 C 3,3 C 88 % 992,6 hPa 0,0 l/m 0 min 2 min 85 W/m 9,7 km/h (2 Bft) 93,62 %
11.12.2020 14:36 5,1 C 4,4 C 3,3 C 88 % 992,5 hPa 0,0 l/m 0 min 0 min 84 W/m 16,1 km/h (3 Bft) 95,74 %
11.12.2020 14:38 5,1 C 4,4 C 3,3 C 88 % 992,5 hPa 0,0 l/m 0 min 0 min 78 W/m 12,9 km/h (3 Bft) 93,75 %
11.12.2020 14:40 5,1 C 4,4 C 3,3 C 88 % 992,4 hPa 0,0 l/m 0 min 0 min 73 W/m 12,9 km/h (3 Bft) 97,83 %
11.12.2020 14:42 5,1 C 4,4 C 3,3 C 88 % 992,5 hPa 0,0 l/m 0 min 0 min 69 W/m 19,3 km/h (3 Bft) 95,74 %
11.12.2020 14:44 5,1 C 4,4 C 3,3 C 89 % 992,6 hPa 0,0 l/m 0 min 0 min 63 W/m 12,9 km/h (3 Bft) 97,87 %
11.12.2020 14:46 5,1 C 4,4 C 3,3 C 89 % 992,5 hPa 0,0 l/m 0 min 0 min 57 W/m 12,9 km/h (3 Bft) 97,87 %
11.12.2020 14:48 5,1 C 4,4 C 2,7 C 89 % 992,5 hPa 0,0 l/m 0 min 2 min 52 W/m 19,3 km/h (3 Bft) 97,87 %
11.12.2020 14:50 5,1 C 4,4 C 2,7 C 89 % 992,5 hPa 0,0 l/m 0 min 2 min 49 W/m 16,1 km/h (3 Bft) 97,87 %
11.12.2020 14:52 5,1 C 3,9 C 2,7 C 89 % 992,5 hPa 0,0 l/m 0 min 2 min 44 W/m 16,1 km/h (3 Bft) 95,65 %
11.12.2020 14:54 5,1 C 3,9 C 2,7 C 89 % 992,5 hPa 0,0 l/m 0 min 2 min 42 W/m 16,1 km/h (3 Bft) 97,87 %
11.12.2020 14:56 5,1 C 3,9 C 2,7 C 89 % 992,4 hPa 0,0 l/m 0 min 2 min 42 W/m 25,7 km/h (4 Bft) 97,87 %
11.12.2020 14:58 5,1 C 3,9 C 2,7 C 89 % 992,4 hPa 0,0 l/m 0 min 2 min 40 W/m 12,9 km/h (3 Bft) 97,87 %
11.12.2020 15:00 5,1 C 3,9 C 2,7 C 90 % 992,4 hPa 0,0 l/m 0 min 2 min 40 W/m 22,5 km/h (4 Bft) 97,87 %
11.12.2020 15:02 5,0 C 3,9 C 2,7 C 90 % 992,4 hPa 0,0 l/m 0 min 2 min 40 W/m 19,3 km/h (3 Bft) 97,87 %
11.12.2020 15:04 5,0 C 3,3 C 2,7 C 90 % 992,4 hPa 0,2 l/m 0 min 2 min 39 W/m 22,5 km/h (4 Bft) 97,83 %
11.12.2020 15:06 5,0 C 3,3 C 2,2 C 90 % 992,4 hPa 0,0 l/m 0 min 2 min 37 W/m 16,1 km/h (3 Bft) 93,62 %
11.12.2020 15:08 5,0 C 3,3 C 2,2 C 90 % 992,3 hPa 0,0 l/m 0 min 2 min 35 W/m 16,1 km/h (3 Bft) 97,87 %
11.12.2020 15:10 5,0 C 3,3 C 2,2 C 90 % 992,3 hPa 0,0 l/m 0 min 2 min 35 W/m 19,3 km/h (3 Bft) 97,87 %
11.12.2020 15:12 5,0 C 3,3 C 2,2 C 90 % 992,3 hPa 0,0 l/m 0 min 2 min 33 W/m 12,9 km/h (3 Bft) 97,87 %
11.12.2020 15:14 5,0 C 3,3 C 2,2 C 90 % 992,3 hPa 0,0 l/m 0 min 2 min 31 W/m 12,9 km/h (3 Bft) 97,87 %
11.12.2020 15:16 4,9 C 3,3 C 2,2 C 91 % 992,3 hPa 0,0 l/m 0 min 2 min 29 W/m 16,1 km/h (3 Bft) 95,65 %
11.12.2020 15:18 4,9 C 3,3 C 2,2 C 91 % 992,2 hPa 0,0 l/m 0 min 2 min 28 W/m 12,9 km/h (3 Bft) 97,87 %
11.12.2020 15:20 4,9 C 3,3 C 2,2 C 91 % 992,3 hPa 0,0 l/m 0 min 2 min 28 W/m 12,9 km/h (3 Bft) 95,74 %
11.12.2020 15:22 4,9 C 3,3 C 2,2 C 91 % 992,3 hPa 0,0 l/m 0 min 2 min 28 W/m 12,9 km/h (3 Bft) 97,87 %
11.12.2020 15:24 4,8 C 3,3 C 2,2 C 91 % 992,3 hPa 0,2 l/m 0 min 2 min 28 W/m 16,1 km/h (3 Bft) 97,87 %
11.12.2020 15:26 4,8 C 3,3 C 2,2 C 91 % 992,3 hPa 0,0 l/m 0 min 2 min 28 W/m 16,1 km/h (3 Bft) 97,87 %
11.12.2020 15:28 4,8 C 3,3 C 2,2 C 92 % 992,2 hPa 0,0 l/m 0 min 2 min 28 W/m 22,5 km/h (4 Bft) 97,83 %
11.12.2020 15:30 4,8 C 3,3 C 2,2 C 92 % 992,3 hPa 0,0 l/m 0 min 2 min 28 W/m 19,3 km/h (3 Bft) 95,74 %
11.12.2020 15:32 4,8 C 3,3 C 2,2 C 92 % 992,2 hPa 0,0 l/m 0 min 2 min 27 W/m 16,1 km/h (3 Bft) 97,87 %
11.12.2020 15:34 4,8 C 3,3 C 2,2 C 92 % 992,2 hPa 0,0 l/m 0 min 2 min 28 W/m 16,1 km/h (3 Bft) 95,74 %
11.12.2020 15:36 4,7 C 3,3 C 2,2 C 92 % 992,2 hPa 0,0 l/m 0 min 2 min 28 W/m 3,2 km/h (1 Bft) 95,74 %
11.12.2020 15:38 4,7 C 3,3 C 2,2 C 92 % 992,3 hPa 0,0 l/m 0 min 0 min 28 W/m 19,3 km/h (3 Bft) 95,65 %
11.12.2020 15:40 4,7 C 3,3 C 2,2 C 92 % 992,3 hPa 0,0 l/m 0 min 0 min 28 W/m 19,3 km/h (3 Bft) 95,74 %
11.12.2020 15:42 4,7 C 3,3 C 2,2 C 92 % 992,3 hPa 0,0 l/m 0 min 0 min 27 W/m 16,1 km/h (3 Bft) 93,62 %
11.12.2020 15:44 4,7 C 3,3 C 2,2 C 92 % 992,3 hPa 0,0 l/m 0 min 0 min 26 W/m 19,3 km/h (3 Bft) 95,74 %
11.12.2020 15:46 4,6 C 3,3 C 2,2 C 92 % 992,3 hPa 0,0 l/m 0 min 2 min 26 W/m 16,1 km/h (3 Bft) 93,62 %
11.12.2020 15:48 4,6 C 3,3 C 2,2 C 92 % 992,3 hPa 0,0 l/m 0 min 0 min 26 W/m 19,3 km/h (3 Bft) 95,74 %
11.12.2020 15:50 4,6 C 3,3 C 2,2 C 92 % 992,3 hPa 0,0 l/m 0 min 0 min 26 W/m 22,5 km/h (4 Bft) 95,74 %
11.12.2020 15:52 4,6 C 3,3 C 2,2 C 92 % 992,3 hPa 0,0 l/m 0 min 0 min 24 W/m 25,7 km/h (4 Bft) 95,65 %
11.12.2020 15:54 4,6 C 3,3 C 2,2 C 92 % 992,2 hPa 0,0 l/m 0 min 0 min 22 W/m 22,5 km/h (4 Bft) 95,74 %
11.12.2020 15:56 4,7 C 3,3 C 2,2 C 92 % 992,2 hPa 0,0 l/m 0 min 0 min 21 W/m 22,5 km/h (4 Bft) 97,87 %
11.12.2020 15:58 4,7 C 3,3 C 2,2 C 92 % 992,3 hPa 0,0 l/m 0 min 0 min 18 W/m 19,3 km/h (3 Bft) 95,74 %
11.12.2020 16:00 4,7 C 3,3 C 2,2 C 92 % 992,3 hPa 0,0 l/m 0 min 0 min 16 W/m 16,1 km/h (3 Bft) 97,87 %
11.12.2020 16:02 4,7 C 3,3 C 2,2 C 92 % 992,3 hPa 0,0 l/m 0 min 0 min 14 W/m 12,9 km/h (3 Bft) 95,65 %
11.12.2020 16:04 4,7 C 3,3 C 2,2 C 92 % 992,3 hPa 0,0 l/m 0 min 0 min 12 W/m 16,1 km/h (3 Bft) 97,87 %
11.12.2020 16:06 4,7 C 3,3 C 2,2 C 92 % 992,3 hPa 0,0 l/m 0 min 0 min 12 W/m 22,5 km/h (4 Bft) 97,87 %
11.12.2020 16:08 4,7 C 3,3 C 2,2 C 92 % 992,3 hPa 0,0 l/m 0 min 0 min 11 W/m 25,7 km/h (4 Bft) 95,74 %
11.12.2020 16:10 4,6 C 3,3 C 2,2 C 92 % 992,3 hPa 0,0 l/m 0 min 0 min 9 W/m 19,3 km/h (3 Bft) 97,87 %
11.12.2020 16:12 4,6 C 3,3 C 2,2 C 92 % 992,2 hPa 0,0 l/m 0 min 0 min 8 W/m 19,3 km/h (3 Bft) 100,00 %
11.12.2020 16:14 4,6 C 3,3 C 2,2 C 92 % 992,2 hPa 0,0 l/m 0 min 0 min 7 W/m 19,3 km/h (3 Bft) 100,00 %
11.12.2020 16:16 4,6 C 3,3 C 2,2 C 92 % 992,1 hPa 0,0 l/m 0 min 2 min 6 W/m 16,1 km/h (3 Bft) 97,87 %
11.12.2020 16:18 4,6 C 3,3 C 2,2 C 93 % 992,1 hPa 0,0 l/m 0 min 0 min 5 W/m 12,9 km/h (3 Bft) 100,00 %
11.12.2020 16:20 4,5 C 3,3 C 2,2 C 93 % 992,1 hPa 0,0 l/m 0 min 2 min 5 W/m 22,5 km/h (4 Bft) 100,00 %
11.12.2020 16:22 4,5 C 3,3 C 2,2 C 93 % 992,1 hPa 0,0 l/m 0 min 2 min 1 W/m 19,3 km/h (3 Bft) 100,00 %
11.12.2020 16:24 4,5 C 3,3 C 2,2 C 93 % 992,1 hPa 0,0 l/m 0 min 2 min 0 W/m 16,1 km/h (3 Bft) 100,00 %
11.12.2020 16:26 4,5 C 3,3 C 2,2 C 92 % 992,1 hPa 0,0 l/m 0 min 0 min 0 W/m 16,1 km/h (3 Bft) 97,83 %
11.12.2020 16:28 4,4 C 3,3 C 2,2 C 93 % 992,1 hPa 0,0 l/m 0 min 0 min 0 W/m 12,9 km/h (3 Bft) 100,00 %
11.12.2020 16:30 4,4 C 3,3 C 2,2 C 93 % 992,1 hPa 0,0 l/m 0 min 0 min 0 W/m 16,1 km/h (3 Bft) 100,00 %
11.12.2020 16:32 4,4 C 3,3 C 2,2 C 93 % 992,1 hPa 0,0 l/m 0 min 0 min 0 W/m 6,4 km/h (2 Bft) 63,64 %
11.12.2020 16:34 4,4 C 3,3 C 2,2 C 93 % 992,1 hPa 0,0 l/m 0 min 0 min 0 W/m 22,5 km/h (4 Bft) 100,00 %
11.12.2020 16:36 4,4 C 3,3 C 2,2 C 93 % 992,1 hPa 0,0 l/m 0 min 0 min 0 W/m 22,5 km/h (4 Bft) 97,87 %
11.12.2020 16:38 4,4 C 3,3 C 2,2 C 93 % 992,1 hPa 0,0 l/m 0 min 0 min 0 W/m 19,3 km/h (3 Bft) 97,87 %
11.12.2020 16:40 4,3 C 3,3 C 2,2 C 93 % 992,1 hPa 0,0 l/m 0 min 2 min 0 W/m 12,9 km/h (3 Bft) 100,00 %
11.12.2020 16:42 4,3 C 3,3 C 1,6 C 93 % 992,1 hPa 0,0 l/m 0 min 2 min 0 W/m 19,3 km/h (3 Bft) 97,83 %
11.12.2020 16:44 4,3 C 3,3 C 1,6 C 93 % 992,1 hPa 0,0 l/m 0 min 2 min 0 W/m 9,7 km/h (2 Bft) 100,00 %
11.12.2020 16:46 4,3 C 3,3 C 1,6 C 93 % 992,1 hPa 0,0 l/m 0 min 2 min 0 W/m 16,1 km/h (3 Bft) 97,87 %
11.12.2020 16:48 4,3 C 3,3 C 1,6 C 93 % 992,1 hPa 0,0 l/m 0 min 2 min 0 W/m 19,3 km/h (3 Bft) 97,87 %
11.12.2020 16:50 4,3 C 2,8 C 1,6 C 93 % 992,1 hPa 0,0 l/m 0 min 0 min 0 W/m 22,5 km/h (4 Bft) 97,87 %
11.12.2020 16:52 4,3 C 2,8 C 1,6 C 93 % 992,2 hPa 0,0 l/m 0 min 2 min 0 W/m 12,9 km/h (3 Bft) 97,87 %
11.12.2020 16:54 4,3 C 2,8 C 1,6 C 93 % 992,1 hPa 0,0 l/m 0 min 0 min 0 W/m 12,9 km/h (3 Bft) 97,83 %
11.12.2020 16:56 4,2 C 2,8 C 1,6 C 93 % 992,2 hPa 0,0 l/m 0 min 0 min 0 W/m 12,9 km/h (3 Bft) 93,62 %
11.12.2020 16:58 4,2 C 2,8 C 1,6 C 93 % 992,2 hPa 0,0 l/m 0 min 0 min 0 W/m 12,9 km/h (3 Bft) 97,87 %
11.12.2020 17:00 4,2 C 2,8 C 1,6 C 93 % 992,2 hPa 0,0 l/m 0 min 0 min 0 W/m 9,7 km/h (2 Bft) 97,87 %
11.12.2020 17:02 4,2 C 2,8 C 1,6 C 93 % 992,1 hPa 0,2 l/m 0 min 0 min 0 W/m 29,0 km/h (5 Bft) 97,87 %
11.12.2020 17:04 4,2 C 2,8 C 2,2 C 93 % 992,1 hPa 0,0 l/m 0 min 0 min 0 W/m 19,3 km/h (3 Bft) 95,74 %
11.12.2020 17:06 4,1 C 2,8 C 2,2 C 93 % 992,1 hPa 0,0 l/m 0 min 0 min 0 W/m 19,3 km/h (3 Bft) 97,73 %
11.12.2020 17:08 4,1 C 2,8 C 2,2 C 93 % 992,1 hPa 0,0 l/m 0 min 0 min 0 W/m 22,5 km/h (4 Bft) 97,87 %
11.12.2020 17:10 4,1 C 2,8 C 2,2 C 93 % 992,0 hPa 0,0 l/m 0 min 2 min 0 W/m 16,1 km/h (3 Bft) 97,87 %
11.12.2020 17:12 4,1 C 2,8 C 2,2 C 93 % 992,0 hPa 0,0 l/m 0 min 0 min 0 W/m 19,3 km/h (3 Bft) 95,74 %
11.12.2020 17:14 4,1 C 2,8 C 1,6 C 93 % 992,0 hPa 0,0 l/m 0 min 0 min 0 W/m 16,1 km/h (3 Bft) 95,65 %
11.12.2020 17:16 4,1 C 2,8 C 2,2 C 93 % 992,1 hPa 0,0 l/m 0 min 0 min 0 W/m 16,1 km/h (3 Bft) 97,87 %
11.12.2020 17:18 4,1 C 3,3 C 2,2 C 93 % 992,0 hPa 0,0 l/m 0 min 0 min 0 W/m 32,2 km/h (5 Bft) 97,87 %
11.12.2020 17:20 4,1 C 3,3 C 2,2 C 93 % 992,0 hPa 0,0 l/m 0 min 0 min 0 W/m 25,7 km/h (4 Bft) 97,87 %
11.12.2020 17:22 4,1 C 3,3 C 2,2 C 93 % 992,0 hPa 0,0 l/m 0 min 0 min 0 W/m 12,9 km/h (3 Bft) 97,87 %
11.12.2020 17:24 4,1 C 3,3 C 2,2 C 93 % 992,0 hPa 0,0 l/m 0 min 0 min 0 W/m 12,9 km/h (3 Bft) 97,87 %
11.12.2020 17:26 4,1 C 3,3 C 2,2 C 93 % 992,0 hPa 0,0 l/m 0 min 0 min 0 W/m 6,4 km/h (2 Bft) 97,83 %
11.12.2020 17:28 4,1 C 3,3 C 2,2 C 93 % 992,0 hPa 0,0 l/m 0 min 0 min 0 W/m 19,3 km/h (3 Bft) 97,87 %
11.12.2020 17:30 4,1 C 3,3 C 2,2 C 93 % 992,0 hPa 0,0 l/m 0 min 0 min 0 W/m 22,5 km/h (4 Bft) 97,87 %
11.12.2020 17:32 4,1 C 2,8 C 2,2 C 93 % 992,0 hPa 0,0 l/m 0 min 0 min 0 W/m 16,1 km/h (3 Bft) 95,74 %
11.12.2020 17:34 4,1 C 2,8 C 1,6 C 93 % 991,9 hPa 0,0 l/m 0 min 0 min 0 W/m 16,1 km/h (3 Bft) 97,87 %
11.12.2020 17:36 4,1 C 2,8 C 1,6 C 93 % 992,0 hPa 0,0 l/m 0 min 0 min 0 W/m 22,5 km/h (4 Bft) 97,87 %
11.12.2020 17:38 4,1 C 2,8 C 1,6 C 93 % 992,0 hPa 0,0 l/m 0 min 0 min 0 W/m 29,0 km/h (5 Bft) 95,74 %
11.12.2020 17:40 4,1 C 2,8 C 1,6 C 93 % 991,9 hPa 0,0 l/m 0 min 0 min 0 W/m 19,3 km/h (3 Bft) 95,74 %
11.12.2020 17:42 4,1 C 2,8 C 1,6 C 93 % 992,0 hPa 0,0 l/m 0 min 2 min 0 W/m 6,4 km/h (2 Bft) 97,87 %
11.12.2020 17:44 4,1 C 2,8 C 1,6 C 93 % 991,9 hPa 0,0 l/m 0 min 0 min 0 W/m 19,3 km/h (3 Bft) 100,00 %
11.12.2020 17:46 4,0 C 3,3 C 1,6 C 93 % 992,0 hPa 0,0 l/m 0 min 0 min 0 W/m 19,3 km/h (3 Bft) 100,00 %
11.12.2020 17:48 4,1 C 3,3 C 1,6 C 93 % 991,9 hPa 0,0 l/m 0 min 0 min 0 W/m 22,5 km/h (4 Bft) 95,74 %
11.12.2020 17:50 4,0 C 3,3 C 1,6 C 93 % 991,9 hPa 0,0 l/m 0 min 0 min 0 W/m 19,3 km/h (3 Bft) 100,00 %
11.12.2020 17:52 4,0 C 2,8 C 1,6 C 93 % 991,9 hPa 0,0 l/m 0 min 0 min 0 W/m 22,5 km/h (4 Bft) 97,87 %
11.12.2020 17:54 4,0 C 2,8 C 1,6 C 93 % 991,9 hPa 0,0 l/m 0 min 2 min 0 W/m 12,9 km/h (3 Bft) 97,87 %
11.12.2020 17:56 4,0 C 2,8 C 1,6 C 93 % 991,9 hPa 0,0 l/m 0 min 2 min 0 W/m 12,9 km/h (3 Bft) 95,74 %
11.12.2020 17:58 4,0 C 2,8 C 1,6 C 93 % 991,9 hPa 0,0 l/m 0 min 2 min 0 W/m 16,1 km/h (3 Bft) 97,87 %
11.12.2020 18:00 4,0 C 2,8 C 1,6 C 93 % 991,9 hPa 0,0 l/m 0 min 2 min 0 W/m 12,9 km/h (3 Bft) 97,87 %
11.12.2020 18:02 4,0 C 2,8 C 1,6 C 93 % 991,9 hPa 0,0 l/m 0 min 0 min 0 W/m 25,7 km/h (4 Bft) 93,48 %
11.12.2020 18:04 4,0 C 2,8 C 1,6 C 93 % 991,9 hPa 0,0 l/m 0 min 0 min 0 W/m 12,9 km/h (3 Bft) 93,62 %
11.12.2020 18:07 3,9 C 2,8 C 1,6 C 93 % 991,8 hPa 0,0 l/m 0 min 0 min 0 W/m 19,3 km/h (3 Bft) 98,59 %
11.12.2020 18:08 3,9 C 2,8 C 1,6 C 93 % 991,8 hPa 0,0 l/m 0 min 1 min 0 W/m 9,7 km/h (2 Bft) 95,83 %
11.12.2020 18:10 3,9 C 2,8 C 1,6 C 93 % 991,8 hPa 0,0 l/m 0 min 2 min 0 W/m 12,9 km/h (3 Bft) 97,87 %
11.12.2020 18:12 3,9 C 2,8 C 1,6 C 93 % 991,8 hPa 0,0 l/m 0 min 0 min 0 W/m 19,3 km/h (3 Bft) 95,74 %
11.12.2020 18:14 3,9 C 2,8 C 1,6 C 93 % 991,8 hPa 0,0 l/m 0 min 0 min 0 W/m 19,3 km/h (3 Bft) 97,87 %
11.12.2020 18:16 3,9 C 2,8 C 1,6 C 93 % 991,8 hPa 0,0 l/m 0 min 0 min 0 W/m 12,9 km/h (3 Bft) 97,83 %
11.12.2020 18:18 3,9 C 2,8 C 1,6 C 93 % 991,7 hPa 0,0 l/m 0 min 2 min 0 W/m 22,5 km/h (4 Bft) 97,87 %
11.12.2020 18:20 3,9 C 2,8 C 1,6 C 93 % 991,8 hPa 0,0 l/m 0 min 0 min 0 W/m 22,5 km/h (4 Bft) 97,87 %
11.12.2020 18:22 3,8 C 2,8 C 1,6 C 94 % 991,8 hPa 0,0 l/m 0 min 0 min 0 W/m 22,5 km/h (4 Bft) 97,87 %
11.12.2020 18:24 3,8 C 2,8 C 1,6 C 94 % 991,8 hPa 0,0 l/m 0 min 2 min 0 W/m 19,3 km/h (3 Bft) 97,87 %
11.12.2020 18:26 3,8 C 2,8 C 1,6 C 94 % 991,8 hPa 0,0 l/m 0 min 0 min 0 W/m 16,1 km/h (3 Bft) 95,74 %
11.12.2020 18:28 3,8 C 2,8 C 1,6 C 94 % 991,7 hPa 0,0 l/m 0 min 0 min 0 W/m 12,9 km/h (3 Bft) 97,83 %
11.12.2020 18:30 3,8 C 2,8 C 1,6 C 94 % 991,8 hPa 0,0 l/m 0 min 0 min 0 W/m 22,5 km/h (4 Bft) 97,87 %
11.12.2020 18:32 3,8 C 2,8 C 1,6 C 94 % 991,7 hPa 0,0 l/m 0 min 0 min 0 W/m 16,1 km/h (3 Bft) 97,87 %
11.12.2020 18:34 3,8 C 2,8 C 1,6 C 94 % 991,7 hPa 0,0 l/m 0 min 0 min 0 W/m 16,1 km/h (3 Bft) 100,00 %
11.12.2020 18:36 3,8 C 2,8 C 1,6 C 94 % 991,7 hPa 0,0 l/m 0 min 0 min 0 W/m 19,3 km/h (3 Bft) 100,00 %
11.12.2020 18:38 3,8 C 2,8 C 1,6 C 94 % 991,7 hPa 0,0 l/m 0 min 0 min 0 W/m 19,3 km/h (3 Bft) 100,00 %
11.12.2020 18:40 3,8 C 2,8 C 1,6 C 94 % 991,7 hPa 0,0 l/m 0 min 0 min 0 W/m 12,9 km/h (3 Bft) 97,87 %
11.12.2020 18:42 3,8 C 2,8 C 1,6 C 94 % 991,7 hPa 0,0 l/m 0 min 0 min 0 W/m 25,7 km/h (4 Bft) 100,00 %
11.12.2020 18:44 3,8 C 2,8 C 1,6 C 94 % 991,7 hPa 0,0 l/m 0 min 0 min 0 W/m 19,3 km/h (3 Bft) 100,00 %
11.12.2020 18:46 3,8 C 2,8 C 1,6 C 94 % 991,7 hPa 0,0 l/m 0 min 0 min 0 W/m 19,3 km/h (3 Bft) 100,00 %
11.12.2020 18:48 3,8 C 2,8 C 1,6 C 94 % 991,7 hPa 0,0 l/m 0 min 0 min 0 W/m 22,5 km/h (4 Bft) 100,00 %
11.12.2020 18:50 3,8 C 2,8 C 1,6 C 94 % 991,7 hPa 0,0 l/m 0 min 0 min 0 W/m 22,5 km/h (4 Bft) 100,00 %
11.12.2020 18:52 3,8 C 2,8 C 1,6 C 94 % 991,7 hPa 0,0 l/m 0 min 0 min 0 W/m 19,3 km/h (3 Bft) 100,00 %
11.12.2020 18:54 3,7 C 2,8 C 1,6 C 94 % 991,6 hPa 0,0 l/m 0 min 0 min 0 W/m 19,3 km/h (3 Bft) 100,00 %
11.12.2020 18:56 3,7 C 2,8 C 1,6 C 94 % 991,7 hPa 0,0 l/m 0 min 0 min 0 W/m 25,7 km/h (4 Bft) 100,00 %
11.12.2020 18:58 3,8 C 2,8 C 1,6 C 94 % 991,7 hPa 0,0 l/m 0 min 0 min 0 W/m 12,9 km/h (3 Bft) 100,00 %
11.12.2020 19:00 3,8 C 2,8 C 1,6 C 94 % 991,7 hPa 0,0 l/m 0 min 0 min 0 W/m 12,9 km/h (3 Bft) 100,00 %
11.12.2020 19:02 3,7 C 2,8 C 1,6 C 94 % 991,6 hPa 0,0 l/m 0 min 0 min 0 W/m 12,9 km/h (3 Bft) 100,00 %
11.12.2020 19:04 3,7 C 2,8 C 1,6 C 94 % 991,6 hPa 0,0 l/m 0 min 0 min 0 W/m 12,9 km/h (3 Bft) 100,00 %
11.12.2020 19:06 3,7 C 2,8 C 1,6 C 94 % 991,6 hPa 0,0 l/m 0 min 0 min 0 W/m 22,5 km/h (4 Bft) 100,00 %
11.12.2020 19:08 3,7 C 2,8 C 1,6 C 94 % 991,6 hPa 0,0 l/m 0 min 0 min 0 W/m 12,9 km/h (3 Bft) 100,00 %
11.12.2020 19:10 3,7 C 2,8 C 1,6 C 94 % 991,7 hPa 0,0 l/m 0 min 0 min 0 W/m 9,7 km/h (2 Bft) 100,00 %
11.12.2020 19:12 3,8 C 2,8 C 1,6 C 94 % 991,7 hPa 0,0 l/m 0 min 0 min 0 W/m 22,5 km/h (4 Bft) 100,00 %
11.12.2020 19:14 3,8 C 2,8 C 1,6 C 94 % 991,7 hPa 0,0 l/m 0 min 0 min 0 W/m 16,1 km/h (3 Bft) 100,00 %
11.12.2020 19:16 3,8 C 3,3 C 1,6 C 94 % 991,7 hPa 0,0 l/m 0 min 0 min 0 W/m 12,9 km/h (3 Bft) 100,00 %
11.12.2020 19:18 3,8 C 3,3 C 1,6 C 94 % 991,7 hPa 0,0 l/m 0 min 0 min 0 W/m 16,1 km/h (3 Bft) 100,00 %
11.12.2020 19:20 3,8 C 3,3 C 1,6 C 94 % 991,6 hPa 0,0 l/m 0 min 0 min 0 W/m 6,4 km/h (2 Bft) 100,00 %
11.12.2020 19:22 3,8 C 3,3 C 1,6 C 94 % 991,7 hPa 0,0 l/m 0 min 0 min 0 W/m 25,7 km/h (4 Bft) 97,87 %
11.12.2020 19:24 3,8 C 3,3 C 1,6 C 94 % 991,7 hPa 0,0 l/m 0 min 0 min 0 W/m 19,3 km/h (3 Bft) 100,00 %
11.12.2020 19:26 3,8 C 3,3 C 1,6 C 94 % 991,7 hPa 0,0 l/m 0 min 0 min 0 W/m 16,1 km/h (3 Bft) 100,00 %
11.12.2020 19:28 3,8 C 3,3 C 1,6 C 94 % 991,7 hPa 0,0 l/m 0 min 0 min 0 W/m 12,9 km/h (3 Bft) 100,00 %
11.12.2020 19:30 3,8 C 3,3 C 1,6 C 94 % 991,7 hPa 0,0 l/m 0 min 0 min 0 W/m 19,3 km/h (3 Bft) 100,00 %
11.12.2020 19:32 3,8 C 3,3 C 1,6 C 94 % 991,7 hPa 0,0 l/m 0 min 0 min 0 W/m 16,1 km/h (3 Bft) 100,00 %
11.12.2020 19:34 3,8 C 3,3 C 1,6 C 94 % 991,7 hPa 0,0 l/m 0 min 0 min 0 W/m 12,9 km/h (3 Bft) 100,00 %
11.12.2020 19:36 3,8 C 3,3 C 1,6 C 94 % 991,6 hPa 0,0 l/m 0 min 0 min 0 W/m 6,4 km/h (2 Bft) 100,00 %
11.12.2020 19:38 3,8 C 3,3 C 1,6 C 94 % 991,6 hPa 0,0 l/m 0 min 0 min 0 W/m 16,1 km/h (3 Bft) 97,87 %
11.12.2020 19:40 3,8 C 3,3 C 1,6 C 94 % 991,7 hPa 0,0 l/m 0 min 0 min 0 W/m 22,5 km/h (4 Bft) 100,00 %
11.12.2020 19:42 3,8 C 3,3 C 1,6 C 94 % 991,7 hPa 0,0 l/m 0 min 2 min 0 W/m 12,9 km/h (3 Bft) 97,83 %
11.12.2020 19:44 3,8 C 3,3 C 1,6 C 94 % 991,7 hPa 0,0 l/m 0 min 2 min 0 W/m 12,9 km/h (3 Bft) 100,00 %
11.12.2020 19:46 3,8 C 3,3 C 1,6 C 94 % 991,7 hPa 0,0 l/m 0 min 0 min 0 W/m 12,9 km/h (3 Bft) 100,00 %
11.12.2020 19:48 3,8 C 3,3 C 1,6 C 94 % 991,7 hPa 0,0 l/m 0 min 2 min 0 W/m 12,9 km/h (3 Bft) 97,87 %
11.12.2020 19:50 3,8 C 2,8 C 1,6 C 94 % 991,7 hPa 0,0 l/m 0 min 2 min 0 W/m 25,7 km/h (4 Bft) 100,00 %
11.12.2020 19:52 3,8 C 2,8 C 1,6 C 94 % 991,7 hPa 0,0 l/m 0 min 2 min 0 W/m 22,5 km/h (4 Bft) 100,00 %
11.12.2020 19:54 3,8 C 2,8 C 1,6 C 94 % 991,6 hPa 0,0 l/m 0 min 2 min 0 W/m 9,7 km/h (2 Bft) 100,00 %
11.12.2020 19:56 3,8 C 2,8 C 1,6 C 94 % 991,6 hPa 0,0 l/m 0 min 2 min 0 W/m 16,1 km/h (3 Bft) 100,00 %
11.12.2020 19:58 3,8 C 2,8 C 1,6 C 94 % 991,7 hPa 0,0 l/m 0 min 2 min 0 W/m 19,3 km/h (3 Bft) 100,00 %
11.12.2020 20:00 3,8 C 2,8 C 1,6 C 94 % 991,7 hPa 0,0 l/m 0 min 0 min 0 W/m 12,9 km/h (3 Bft) 100,00 %
11.12.2020 20:02 3,8 C 2,8 C 1,6 C 94 % 991,7 hPa 0,0 l/m 0 min 2 min 0 W/m 25,7 km/h (4 Bft) 97,87 %
11.12.2020 20:04 3,8 C 2,8 C 1,6 C 94 % 991,7 hPa 0,0 l/m 0 min 2 min 0 W/m 12,9 km/h (3 Bft) 97,87 %
11.12.2020 20:06 3,8 C 2,8 C 1,6 C 94 % 991,8 hPa 0,2 l/m 0 min 2 min 0 W/m 16,1 km/h (3 Bft) 95,65 %
11.12.2020 20:08 3,8 C 2,8 C 1,6 C 94 % 991,8 hPa 0,0 l/m 0 min 2 min 0 W/m 12,9 km/h (3 Bft) 96,61 %
11.12.2020 20:10 3,8 C 2,8 C 1,6 C 94 % 991,8 hPa 0,0 l/m 0 min 2 min 0 W/m 19,3 km/h (3 Bft) 97,14 %
11.12.2020 20:12 3,8 C 2,8 C 1,6 C 94 % 991,8 hPa 0,0 l/m 0 min 2 min 0 W/m 19,3 km/h (3 Bft) 95,74 %
11.12.2020 20:14 3,8 C 2,8 C 1,6 C 94 % 991,8 hPa 0,0 l/m 0 min 2 min 0 W/m 6,4 km/h (2 Bft) 97,87 %
11.12.2020 20:16 3,8 C 2,8 C 1,6 C 94 % 991,8 hPa 0,0 l/m 0 min 2 min 0 W/m 16,1 km/h (3 Bft) 95,65 %
11.12.2020 20:18 3,7 C 2,8 C 1,6 C 94 % 991,9 hPa 0,0 l/m 0 min 2 min 0 W/m 16,1 km/h (3 Bft) 93,62 %
11.12.2020 20:20 3,7 C 2,8 C 1,6 C 94 % 991,8 hPa 0,0 l/m 0 min 2 min 0 W/m 19,3 km/h (3 Bft) 93,62 %
11.12.2020 20:22 3,7 C 2,8 C 1,6 C 95 % 991,8 hPa 0,0 l/m 0 min 2 min 0 W/m 22,5 km/h (4 Bft) 95,74 %
11.12.2020 20:24 3,7 C 2,8 C 1,6 C 95 % 991,8 hPa 0,0 l/m 0 min 2 min 0 W/m 12,9 km/h (3 Bft) 95,74 %
11.12.2020 20:26 3,7 C 2,8 C 1,6 C 95 % 991,8 hPa 0,0 l/m 0 min 2 min 0 W/m 25,7 km/h (4 Bft) 95,74 %
11.12.2020 20:28 3,7 C 2,8 C 1,6 C 95 % 991,8 hPa 0,0 l/m 0 min 2 min 0 W/m 16,1 km/h (3 Bft) 95,65 %
11.12.2020 20:29 3,7 C 2,8 C 1,6 C 95 % 991,8 hPa 0,0 l/m 0 min 0 min 0 W/m 16,1 km/h (3 Bft) 93,62 %
11.12.2020 20:32 3,7 C 2,8 C 1,6 C 95 % 991,8 hPa 0,0 l/m 0 min 3 min 0 W/m 19,3 km/h (3 Bft) 94,92 %
11.12.2020 20:34 3,6 C 2,8 C 1,6 C 95 % 991,8 hPa 0,0 l/m 0 min 0 min 0 W/m 12,9 km/h (3 Bft) 93,62 %
11.12.2020 20:36 3,7 C 2,8 C 1,6 C 95 % 991,8 hPa 0,0 l/m 0 min 2 min 0 W/m 12,9 km/h (3 Bft) 95,65 %
11.12.2020 20:38 3,6 C 2,8 C 1,6 C 95 % 991,7 hPa 0,0 l/m 0 min 2 min 0 W/m 16,1 km/h (3 Bft) 95,24 %
11.12.2020 20:40 3,6 C 2,8 C 1,6 C 95 % 991,8 hPa 0,0 l/m 0 min 2 min 0 W/m 12,9 km/h (3 Bft) 95,74 %
11.12.2020 20:42 3,6 C 2,8 C 1,6 C 95 % 991,7 hPa 0,0 l/m 0 min 2 min 0 W/m 9,7 km/h (2 Bft) 93,62 %
11.12.2020 20:44 3,6 C 2,8 C 1,6 C 95 % 991,8 hPa 0,0 l/m 0 min 2 min 0 W/m 12,9 km/h (3 Bft) 91,49 %
11.12.2020 20:46 3,6 C 2,8 C 1,6 C 95 % 991,7 hPa 0,0 l/m 0 min 2 min 0 W/m 12,9 km/h (3 Bft) 93,62 %
11.12.2020 20:48 3,6 C 2,8 C 1,6 C 95 % 991,8 hPa 0,0 l/m 0 min 2 min 0 W/m 12,9 km/h (3 Bft) 95,65 %
11.12.2020 20:50 3,6 C 2,8 C 1,6 C 95 % 991,8 hPa 0,0 l/m 0 min 2 min 0 W/m 25,7 km/h (4 Bft) 95,74 %
11.12.2020 20:52 3,6 C 2,8 C 1,6 C 95 % 991,7 hPa 0,0 l/m 0 min 0 min 0 W/m 19,3 km/h (3 Bft) 93,62 %
11.12.2020 20:54 3,6 C 2,8 C 1,6 C 95 % 991,7 hPa 0,0 l/m 0 min 0 min 0 W/m 16,1 km/h (3 Bft) 97,87 %
11.12.2020 20:56 3,6 C 2,8 C 1,6 C 95 % 991,7 hPa 0,0 l/m 0 min 0 min 0 W/m 16,1 km/h (3 Bft) 97,87 %
11.12.2020 20:58 3,6 C 2,8 C 1,6 C 95 % 991,8 hPa 0,0 l/m 0 min 0 min 0 W/m 6,4 km/h (2 Bft) 100,00 %
11.12.2020 21:00 3,6 C 2,8 C 1,6 C 95 % 991,7 hPa 0,0 l/m 0 min 0 min 0 W/m 16,1 km/h (3 Bft) 97,83 %
11.12.2020 21:02 3,6 C 2,8 C 1,6 C 96 % 991,7 hPa 0,0 l/m 0 min 0 min 0 W/m 22,5 km/h (4 Bft) 97,87 %
11.12.2020 21:04 3,6 C 2,8 C 1,6 C 96 % 991,7 hPa 0,0 l/m 0 min 0 min 0 W/m 12,9 km/h (3 Bft) 100,00 %
11.12.2020 21:06 3,6 C 2,8 C 1,6 C 96 % 991,7 hPa 0,0 l/m 0 min 0 min 0 W/m 6,4 km/h (2 Bft) 100,00 %
11.12.2020 21:08 3,6 C 2,8 C 1,6 C 96 % 991,7 hPa 0,0 l/m 0 min 0 min 0 W/m 9,7 km/h (2 Bft) 97,87 %
11.12.2020 21:10 3,6 C 2,8 C 1,6 C 96 % 991,7 hPa 0,0 l/m 0 min 0 min 0 W/m 3,2 km/h (1 Bft) 97,87 %
11.12.2020 21:12 3,6 C 2,8 C 1,6 C 96 % 991,7 hPa 0,0 l/m 0 min 0 min 0 W/m 12,9 km/h (3 Bft) 100,00 %
11.12.2020 21:14 3,6 C 2,8 C 1,6 C 96 % 991,7 hPa 0,0 l/m 0 min 0 min 0 W/m 12,9 km/h (3 Bft) 100,00 %
11.12.2020 21:16 3,6 C 2,8 C 1,6 C 96 % 991,7 hPa 0,0 l/m 0 min 0 min 0 W/m 12,9 km/h (3 Bft) 100,00 %
11.12.2020 21:18 3,6 C 2,8 C 1,6 C 96 % 991,7 hPa 0,0 l/m 0 min 0 min 0 W/m 12,9 km/h (3 Bft) 97,87 %
11.12.2020 21:20 3,6 C 2,8 C 1,6 C 96 % 991,8 hPa 0,0 l/m 0 min 0 min 0 W/m 16,1 km/h (3 Bft) 100,00 %
11.12.2020 21:22 3,6 C 2,8 C 1,6 C 96 % 991,7 hPa 0,0 l/m 0 min 0 min 0 W/m 25,7 km/h (4 Bft) 100,00 %
11.12.2020 21:24 3,6 C 2,8 C 1,6 C 96 % 991,8 hPa 0,2 l/m 0 min 0 min 0 W/m 12,9 km/h (3 Bft) 100,00 %
11.12.2020 21:26 3,6 C 2,8 C 1,6 C 96 % 991,7 hPa 0,0 l/m 0 min 0 min 0 W/m 22,5 km/h (4 Bft) 100,00 %
11.12.2020 21:28 3,6 C 2,8 C 1,6 C 96 % 991,7 hPa 0,0 l/m 0 min 0 min 0 W/m 16,1 km/h (3 Bft) 100,00 %
11.12.2020 21:30 3,5 C 2,8 C 1,6 C 96 % 991,7 hPa 0,0 l/m 0 min 0 min 0 W/m 12,9 km/h (3 Bft) 100,00 %
11.12.2020 21:32 3,6 C 2,8 C 1,6 C 96 % 991,7 hPa 0,0 l/m 0 min 0 min 0 W/m 12,9 km/h (3 Bft) 100,00 %
11.12.2020 21:34 3,6 C 2,8 C 1,6 C 96 % 991,7 hPa 0,0 l/m 0 min 0 min 0 W/m 16,1 km/h (3 Bft) 100,00 %
11.12.2020 21:36 3,5 C 2,8 C 1,6 C 96 % 991,7 hPa 0,0 l/m 0 min 0 min 0 W/m 16,1 km/h (3 Bft) 100,00 %
11.12.2020 21:38 3,5 C 2,8 C 1,6 C 96 % 991,8 hPa 0,0 l/m 0 min 0 min 0 W/m 16,1 km/h (3 Bft) 100,00 %
11.12.2020 21:40 3,5 C 2,8 C 1,6 C 96 % 991,7 hPa 0,0 l/m 0 min 0 min 0 W/m 9,7 km/h (2 Bft) 100,00 %
11.12.2020 21:42 3,5 C 2,8 C 1,6 C 96 % 991,7 hPa 0,0 l/m 0 min 0 min 0 W/m 16,1 km/h (3 Bft) 100,00 %
11.12.2020 21:44 3,5 C 2,8 C 1,6 C 96 % 991,8 hPa 0,0 l/m 0 min 0 min 0 W/m 9,7 km/h (2 Bft) 100,00 %
11.12.2020 21:46 3,5 C 2,8 C 1,6 C 96 % 991,8 hPa 0,0 l/m 0 min 0 min 0 W/m 12,9 km/h (3 Bft) 100,00 %
11.12.2020 21:48 3,5 C 2,8 C 1,6 C 96 % 991,8 hPa 0,0 l/m 0 min 0 min 0 W/m 12,9 km/h (3 Bft) 97,83 %
11.12.2020 21:50 3,5 C 2,8 C 1,6 C 97 % 991,8 hPa 0,0 l/m 0 min 0 min 0 W/m 19,3 km/h (3 Bft) 100,00 %
11.12.2020 21:52 3,5 C 2,8 C 1,6 C 97 % 991,8 hPa 0,0 l/m 0 min 0 min 0 W/m 22,5 km/h (4 Bft) 100,00 %
11.12.2020 21:54 3,5 C 2,8 C 1,6 C 97 % 991,8 hPa 0,0 l/m 0 min 0 min 0 W/m 16,1 km/h (3 Bft) 100,00 %
11.12.2020 21:56 3,5 C 2,8 C 1,6 C 97 % 991,9 hPa 0,0 l/m 0 min 0 min 0 W/m 16,1 km/h (3 Bft) 100,00 %
11.12.2020 21:58 3,5 C 2,8 C 1,6 C 97 % 991,9 hPa 0,0 l/m 0 min 0 min 0 W/m 12,9 km/h (3 Bft) 100,00 %
11.12.2020 22:00 3,5 C 2,8 C 1,6 C 97 % 991,9 hPa 0,0 l/m 0 min 0 min 0 W/m 12,9 km/h (3 Bft) 100,00 %
11.12.2020 22:02 3,5 C 2,8 C 2,2 C 97 % 991,9 hPa 0,0 l/m 0 min 0 min 0 W/m 12,9 km/h (3 Bft) 100,00 %
11.12.2020 22:04 3,6 C 2,8 C 1,6 C 97 % 991,8 hPa 0,0 l/m 0 min 0 min 0 W/m 6,4 km/h (2 Bft) 100,00 %
11.12.2020 22:06 3,6 C 2,8 C 2,2 C 97 % 991,8 hPa 0,0 l/m 0 min 0 min 0 W/m 0,0 km/h (0 Bft) 100,00 %
11.12.2020 22:08 3,6 C 2,8 C 2,2 C 97 % 991,8 hPa 0,0 l/m 0 min 0 min 0 W/m 3,2 km/h (1 Bft) 100,00 %
11.12.2020 22:10 3,6 C 2,8 C 2,2 C 97 % 991,9 hPa 0,0 l/m 0 min 0 min 0 W/m 6,4 km/h (2 Bft) 100,00 %
11.12.2020 22:12 3,6 C 2,8 C 2,2 C 97 % 991,8 hPa 0,0 l/m 0 min 0 min 0 W/m 6,4 km/h (2 Bft) 100,00 %
11.12.2020 22:14 3,6 C 2,8 C 2,2 C 97 % 991,8 hPa 0,0 l/m 0 min 0 min 0 W/m 3,2 km/h (1 Bft) 100,00 %
11.12.2020 22:16 3,6 C 2,8 C 2,2 C 97 % 991,8 hPa 0,0 l/m 0 min 0 min 0 W/m 12,9 km/h (3 Bft) 100,00 %
11.12.2020 22:18 3,6 C 2,8 C 2,2 C 97 % 991,8 hPa 0,0 l/m 0 min 0 min 0 W/m 6,4 km/h (2 Bft) 100,00 %
11.12.2020 22:20 3,6 C 2,8 C 2,2 C 97 % 991,8 hPa 0,0 l/m 0 min 0 min 0 W/m 3,2 km/h (1 Bft) 100,00 %
11.12.2020 22:22 3,6 C 2,8 C 2,2 C 97 % 991,8 hPa 0,0 l/m 0 min 0 min 0 W/m 6,4 km/h (2 Bft) 100,00 %
11.12.2020 22:24 3,6 C 2,8 C 2,2 C 97 % 991,8 hPa 0,0 l/m 0 min 0 min 0 W/m 9,7 km/h (2 Bft) 100,00 %
11.12.2020 22:26 3,6 C 2,8 C 2,2 C 97 % 991,8 hPa 0,0 l/m 0 min 0 min 0 W/m 0,0 km/h (0 Bft) 100,00 %
11.12.2020 22:28 3,6 C 2,8 C 2,2 C 97 % 991,8 hPa 0,0 l/m 0 min 0 min 0 W/m 3,2 km/h (1 Bft) 100,00 %
11.12.2020 22:30 3,6 C 2,8 C 2,2 C 97 % 991,8 hPa 0,0 l/m 0 min 0 min 0 W/m 6,4 km/h (2 Bft) 100,00 %
11.12.2020 22:32 3,6 C 2,8 C 2,2 C 97 % 991,8 hPa 0,0 l/m 0 min 0 min 0 W/m 3,2 km/h (1 Bft) 95,65 %
11.12.2020 22:34 3,6 C 2,8 C 2,2 C 97 % 991,8 hPa 0,0 l/m 0 min 0 min 0 W/m 6,4 km/h (2 Bft) 100,00 %
11.12.2020 22:36 3,6 C 2,8 C 2,2 C 97 % 991,8 hPa 0,0 l/m 0 min 0 min 0 W/m 12,9 km/h (3 Bft) 100,00 %
11.12.2020 22:38 3,6 C 2,8 C 2,2 C 97 % 991,8 hPa 0,0 l/m 0 min 0 min 0 W/m 6,4 km/h (2 Bft) 100,00 %
11.12.2020 22:40 3,6 C 2,8 C 2,2 C 97 % 991,8 hPa 0,0 l/m 0 min 0 min 0 W/m 6,4 km/h (2 Bft) 100,00 %
11.12.2020 22:42 3,6 C 2,8 C 2,2 C 97 % 991,8 hPa 0,0 l/m 0 min 0 min 0 W/m 6,4 km/h (2 Bft) 97,87 %
11.12.2020 22:44 3,6 C 2,8 C 2,2 C 97 % 991,8 hPa 0,0 l/m 0 min 0 min 0 W/m 12,9 km/h (3 Bft) 97,83 %
11.12.2020 22:46 3,6 C 2,8 C 2,2 C 97 % 991,8 hPa 0,0 l/m 0 min 0 min 0 W/m 3,2 km/h (1 Bft) 97,87 %
11.12.2020 22:48 3,6 C 2,8 C 2,2 C 97 % 991,8 hPa 0,0 l/m 0 min 0 min 0 W/m 6,4 km/h (2 Bft) 97,87 %
11.12.2020 22:50 3,6 C 2,8 C 2,2 C 97 % 991,8 hPa 0,0 l/m 0 min 0 min 0 W/m 12,9 km/h (3 Bft) 97,87 %
11.12.2020 22:52 3,7 C 2,8 C 2,2 C 97 % 991,8 hPa 0,0 l/m 0 min 0 min 0 W/m 6,4 km/h (2 Bft) 97,87 %
11.12.2020 22:54 3,7 C 2,8 C 2,2 C 97 % 991,8 hPa 0,0 l/m 0 min 0 min 0 W/m 3,2 km/h (1 Bft) 95,74 %
11.12.2020 22:56 3,7 C 2,8 C 2,2 C 97 % 991,8 hPa 0,0 l/m 0 min 0 min 0 W/m 6,4 km/h (2 Bft) 97,83 %
11.12.2020 22:58 3,7 C 2,8 C 2,2 C 98 % 991,9 hPa 0,0 l/m 0 min 0 min 0 W/m 12,9 km/h (3 Bft) 97,87 %
11.12.2020 23:00 3,7 C 2,8 C 2,2 C 98 % 991,8 hPa 0,0 l/m 0 min 0 min 0 W/m 3,2 km/h (1 Bft) 95,74 %
11.12.2020 23:02 3,7 C 3,3 C 2,2 C 98 % 991,8 hPa 0,0 l/m 0 min 0 min 0 W/m 16,1 km/h (3 Bft) 93,62 %
11.12.2020 23:04 3,8 C 3,3 C 2,2 C 98 % 991,9 hPa 0,0 l/m 0 min 0 min 0 W/m 12,9 km/h (3 Bft) 95,74 %
11.12.2020 23:06 3,8 C 3,3 C 2,2 C 98 % 991,8 hPa 0,0 l/m 0 min 0 min 0 W/m 6,4 km/h (2 Bft) 94,87 %
11.12.2020 23:08 3,8 C 3,3 C 2,2 C 98 % 991,8 hPa 0,0 l/m 0 min 0 min 0 W/m 16,1 km/h (3 Bft) 95,74 %
11.12.2020 23:10 3,8 C 3,3 C 2,2 C 98 % 991,8 hPa 0,0 l/m 0 min 0 min 0 W/m 6,4 km/h (2 Bft) 95,74 %
11.12.2020 23:12 3,8 C 3,3 C 2,2 C 98 % 991,8 hPa 0,0 l/m 0 min 0 min 0 W/m 6,4 km/h (2 Bft) 93,48 %
11.12.2020 23:14 3,8 C 3,3 C 2,2 C 98 % 991,7 hPa 0,0 l/m 0 min 0 min 0 W/m 3,2 km/h (1 Bft) 95,74 %
11.12.2020 23:16 3,8 C 2,8 C 2,2 C 98 % 991,7 hPa 0,0 l/m 0 min 0 min 0 W/m 6,4 km/h (2 Bft) 95,74 %
11.12.2020 23:18 3,8 C 2,8 C 2,2 C 98 % 991,8 hPa 0,0 l/m 0 min 0 min 0 W/m 6,4 km/h (2 Bft) 95,74 %
11.12.2020 23:20 3,8 C 2,8 C 2,2 C 98 % 991,7 hPa 0,0 l/m 0 min 0 min 0 W/m 6,4 km/h (2 Bft) 91,49 %
11.12.2020 23:22 3,8 C 2,8 C 2,2 C 98 % 991,8 hPa 0,0 l/m 0 min 0 min 0 W/m 12,9 km/h (3 Bft) 95,74 %
11.12.2020 23:24 3,8 C 2,8 C 2,2 C 98 % 991,8 hPa 0,0 l/m 0 min 0 min 0 W/m 6,4 km/h (2 Bft) 95,65 %
11.12.2020 23:26 3,8 C 2,8 C 2,2 C 98 % 991,7 hPa 0,0 l/m 0 min 0 min 0 W/m 0,0 km/h (0 Bft) 95,74 %
11.12.2020 23:28 3,8 C 2,8 C 2,2 C 98 % 991,7 hPa 0,0 l/m 0 min 0 min 0 W/m 0,0 km/h (0 Bft) 95,74 %
11.12.2020 23:30 3,8 C 2,8 C 2,2 C 98 % 991,7 hPa 0,0 l/m 0 min 0 min 0 W/m 3,2 km/h (1 Bft) 95,74 %
11.12.2020 23:32 3,8 C 2,8 C 2,2 C 98 % 991,7 hPa 0,0 l/m 0 min 0 min 0 W/m 3,2 km/h (1 Bft) 95,74 %
11.12.2020 23:34 3,8 C 2,8 C 2,2 C 98 % 991,7 hPa 0,0 l/m 0 min 0 min 0 W/m 6,4 km/h (2 Bft) 97,87 %
11.12.2020 23:36 3,7 C 2,8 C 2,2 C 98 % 991,7 hPa 0,0 l/m 0 min 0 min 0 W/m 6,4 km/h (2 Bft) 95,65 %
11.12.2020 23:38 3,7 C 2,8 C 2,2 C 98 % 991,7 hPa 0,0 l/m 0 min 0 min 0 W/m 12,9 km/h (3 Bft) 93,62 %
11.12.2020 23:40 3,7 C 2,8 C 2,2 C 98 % 991,7 hPa 0,0 l/m 0 min 0 min 0 W/m 12,9 km/h (3 Bft) 97,87 %
11.12.2020 23:42 3,7 C 2,8 C 2,2 C 98 % 991,7 hPa 0,0 l/m 0 min 0 min 0 W/m 3,2 km/h (1 Bft) 97,87 %
11.12.2020 23:44 3,7 C 2,8 C 2,2 C 98 % 991,7 hPa 0,0 l/m 0 min 0 min 0 W/m 3,2 km/h (1 Bft) 97,87 %
11.12.2020 23:46 3,7 C 2,8 C 2,2 C 98 % 991,7 hPa 0,0 l/m 0 min 0 min 0 W/m 0,0 km/h (0 Bft) 97,83 %
11.12.2020 23:48 3,7 C 2,8 C 2,2 C 98 % 991,7 hPa 0,0 l/m 0 min 0 min 0 W/m 6,4 km/h (2 Bft) 95,74 %
11.12.2020 23:50 3,7 C 3,3 C 2,2 C 98 % 991,7 hPa 0,0 l/m 0 min 0 min 0 W/m 19,3 km/h (3 Bft) 100,00 %
11.12.2020 23:52 3,7 C 3,3 C 2,2 C 98 % 991,7 hPa 0,0 l/m 0 min 0 min 0 W/m 16,1 km/h (3 Bft) 100,00 %
11.12.2020 23:54 3,7 C 3,3 C 2,2 C 98 % 991,7 hPa 0,0 l/m 0 min 0 min 0 W/m 9,7 km/h (2 Bft) 100,00 %
11.12.2020 23:56 3,7 C 3,3 C 2,2 C 98 % 991,6 hPa 0,0 l/m 0 min 0 min 0 W/m 9,7 km/h (2 Bft) 100,00 %
11.12.2020 23:58 3,7 C 3,3 C 2,2 C 98 % 991,7 hPa 0,0 l/m 0 min 0 min 0 W/m 6,4 km/h (2 Bft) 100,00 %
_ Min-Zeit 00:00 00:00 00:00 13:56 18:54 - - - - 22:06 12:02
Minimum _ 0,3 C 0,0 C -1,2 C 87 % 991,6 hPa - - - - 0,0 km/h (0 Bft) 51,16 %
_ Max-Zeit 14:20 13:38 13:40 22:58 00:00 10:44 13:32 20:32 13:36 10:24 00:32
Maximum _ 5,1 C 6,7 C 3,8 C 98 % 1004,4 hPa 0,2 l/m 2 min 3 min 206 W/m 41,8 km/h
O (6 Bft)
100,00 %
Durchschnitt _ 2,7 C 2,1 C 1,0 C 92 % 995,5 hPa #1,2 l/m #26 min. #3:06 h 53 W/m 15,8 km/h (3 Bft) 97,05 %
© 2020 W. Hausmann